<?xml version="1.0" encoding="UTF-8" standalone="no" ?>
<gpx xmlns="http://www.topografix.com/GPX/1/1" xmlns:xsi="http://www.w3.org/2001/XMLSchema-instance" xsi:schemaLocation="http://www.topografix.com/GPX/1/1 http://www.topografix.com/GPX/1/1/gpx.xsd" version="1.1" creator="VisuGPX - https://www.visugpx.com">
  <metadata>
    <name>Questembert</name>
    <desc><![CDATA[circuit de 14,5km, intéressant, varié, sans grosse difficulté ]]></desc>
  </metadata>
  <trk>
    <name><![CDATA[Questembert]]></name>
    <desc><![CDATA[<h1>OruxMaps</h1><br /><hr align="center" width="480" style="height: 2px; width: 517px"/><h2>Nom: Questembert</h2><br /><p>Temps de départ: 03/10/2015 13:36</p><p>Temps d'arrivée: 03/10/2015 17:29</p><p>Distance: 14,4km (03:52)</p><p>Temps déplacement: 02:45</p><p>Vitesse moyenne: 3,7km/h</p><p>Vitesse moyenne: 5,2km/h</p><p>Vitess Max.: 16,3km/h</p><p>Altitude minimale: 30m</p><p>Altitude maximale: 127m</p><p>Vitesse d'élévation: 192,1m/h</p><p>Vitesse de descente: -198,7m/h</p><p>Gain Altitude: 300m</p><p>Perte Altitude: -336m</p><p>Temps d'élévation: 01:33</p><p>Temps de descente: 01:41</p><hr align="center" width="480" style="height: 2px; width: 517px"/>]]></desc>
    <trkseg>
      <trkpt lat="47.68788" lon="-2.44223">
        <ele>127.97</ele>
        <time>2015-03-10T12:36:30Z</time>
      </trkpt>
      <trkpt lat="47.6879" lon="-2.44196">
        <ele>101.4</ele>
        <time>2015-03-10T12:38:54Z</time>
      </trkpt>
      <trkpt lat="47.68788" lon="-2.44169">
        <ele>99.21</ele>
        <time>2015-03-10T12:39:13Z</time>
      </trkpt>
      <trkpt lat="47.68777" lon="-2.44146">
        <ele>98.16</ele>
        <time>2015-03-10T12:39:28Z</time>
      </trkpt>
      <trkpt lat="47.68764" lon="-2.44124">
        <ele>98.02</ele>
        <time>2015-03-10T12:39:48Z</time>
      </trkpt>
      <trkpt lat="47.68748" lon="-2.4411">
        <ele>98.31</ele>
        <time>2015-03-10T12:40:02Z</time>
      </trkpt>
      <trkpt lat="47.68731" lon="-2.44095">
        <ele>98.45</ele>
        <time>2015-03-10T12:40:19Z</time>
      </trkpt>
      <trkpt lat="47.68719" lon="-2.44076">
        <ele>97.96</ele>
        <time>2015-03-10T12:40:32Z</time>
      </trkpt>
      <trkpt lat="47.68719" lon="-2.44047">
        <ele>98.68</ele>
        <time>2015-03-10T12:40:49Z</time>
      </trkpt>
      <trkpt lat="47.68735" lon="-2.44031">
        <ele>98.8</ele>
        <time>2015-03-10T12:41:02Z</time>
      </trkpt>
      <trkpt lat="47.68751" lon="-2.44018">
        <ele>99.55</ele>
        <time>2015-03-10T12:41:18Z</time>
      </trkpt>
      <trkpt lat="47.68767" lon="-2.44004">
        <ele>99.34</ele>
        <time>2015-03-10T12:41:34Z</time>
      </trkpt>
      <trkpt lat="47.68783" lon="-2.43992">
        <ele>98.96</ele>
        <time>2015-03-10T12:41:51Z</time>
      </trkpt>
      <trkpt lat="47.688" lon="-2.43979">
        <ele>98.05</ele>
        <time>2015-03-10T12:42:08Z</time>
      </trkpt>
      <trkpt lat="47.68817" lon="-2.43964">
        <ele>97.14</ele>
        <time>2015-03-10T12:42:22Z</time>
      </trkpt>
      <trkpt lat="47.68834" lon="-2.43948">
        <ele>97.21</ele>
        <time>2015-03-10T12:42:39Z</time>
      </trkpt>
      <trkpt lat="47.68851" lon="-2.43938">
        <ele>98.85</ele>
        <time>2015-03-10T12:42:51Z</time>
      </trkpt>
      <trkpt lat="47.68867" lon="-2.43925">
        <ele>99.07</ele>
        <time>2015-03-10T12:43:04Z</time>
      </trkpt>
      <trkpt lat="47.68883" lon="-2.43914">
        <ele>97.99</ele>
        <time>2015-03-10T12:43:23Z</time>
      </trkpt>
      <trkpt lat="47.68899" lon="-2.439">
        <ele>97.57</ele>
        <time>2015-03-10T12:43:38Z</time>
      </trkpt>
      <trkpt lat="47.68914" lon="-2.43885">
        <ele>96.37</ele>
        <time>2015-03-10T12:43:54Z</time>
      </trkpt>
      <trkpt lat="47.68931" lon="-2.43874">
        <ele>95.89</ele>
        <time>2015-03-10T12:44:08Z</time>
      </trkpt>
      <trkpt lat="47.68946" lon="-2.43857">
        <ele>95.35</ele>
        <time>2015-03-10T12:44:25Z</time>
      </trkpt>
      <trkpt lat="47.68963" lon="-2.43843">
        <ele>93.81</ele>
        <time>2015-03-10T12:44:42Z</time>
      </trkpt>
      <trkpt lat="47.6898" lon="-2.43828">
        <ele>93.94</ele>
        <time>2015-03-10T12:44:57Z</time>
      </trkpt>
      <trkpt lat="47.68997" lon="-2.43818">
        <ele>93.79</ele>
        <time>2015-03-10T12:45:13Z</time>
      </trkpt>
      <trkpt lat="47.69012" lon="-2.43802">
        <ele>92.71</ele>
        <time>2015-03-10T12:45:29Z</time>
      </trkpt>
      <trkpt lat="47.69028" lon="-2.43787">
        <ele>92.99</ele>
        <time>2015-03-10T12:45:45Z</time>
      </trkpt>
      <trkpt lat="47.69044" lon="-2.43772">
        <ele>92.99</ele>
        <time>2015-03-10T12:46:04Z</time>
      </trkpt>
      <trkpt lat="47.69061" lon="-2.43758">
        <ele>91.14</ele>
        <time>2015-03-10T12:46:22Z</time>
      </trkpt>
      <trkpt lat="47.69076" lon="-2.43744">
        <ele>90.43</ele>
        <time>2015-03-10T12:46:38Z</time>
      </trkpt>
      <trkpt lat="47.69092" lon="-2.43729">
        <ele>89.93</ele>
        <time>2015-03-10T12:46:55Z</time>
      </trkpt>
      <trkpt lat="47.69108" lon="-2.43715">
        <ele>89.57</ele>
        <time>2015-03-10T12:47:12Z</time>
      </trkpt>
      <trkpt lat="47.69124" lon="-2.43703">
        <ele>89.35</ele>
        <time>2015-03-10T12:47:28Z</time>
      </trkpt>
      <trkpt lat="47.69141" lon="-2.43693">
        <ele>91.14</ele>
        <time>2015-03-10T12:47:46Z</time>
      </trkpt>
      <trkpt lat="47.69158" lon="-2.43677">
        <ele>93.37</ele>
        <time>2015-03-10T12:48:00Z</time>
      </trkpt>
      <trkpt lat="47.69174" lon="-2.43664">
        <ele>93.09</ele>
        <time>2015-03-10T12:48:13Z</time>
      </trkpt>
      <trkpt lat="47.69188" lon="-2.43645">
        <ele>93.7</ele>
        <time>2015-03-10T12:48:29Z</time>
      </trkpt>
      <trkpt lat="47.69205" lon="-2.43633">
        <ele>92.78</ele>
        <time>2015-03-10T12:48:47Z</time>
      </trkpt>
      <trkpt lat="47.69222" lon="-2.43619">
        <ele>92.2</ele>
        <time>2015-03-10T12:49:02Z</time>
      </trkpt>
      <trkpt lat="47.69237" lon="-2.43604">
        <ele>93.79</ele>
        <time>2015-03-10T12:49:20Z</time>
      </trkpt>
      <trkpt lat="47.69254" lon="-2.43594">
        <ele>93.53</ele>
        <time>2015-03-10T12:49:35Z</time>
      </trkpt>
      <trkpt lat="47.69269" lon="-2.43578">
        <ele>92.74</ele>
        <time>2015-03-10T12:49:49Z</time>
      </trkpt>
      <trkpt lat="47.69286" lon="-2.43567">
        <ele>94.55</ele>
        <time>2015-03-10T12:50:03Z</time>
      </trkpt>
      <trkpt lat="47.69304" lon="-2.43557">
        <ele>98.23</ele>
        <time>2015-03-10T12:50:19Z</time>
      </trkpt>
      <trkpt lat="47.69322" lon="-2.43551">
        <ele>98.64</ele>
        <time>2015-03-10T12:50:36Z</time>
      </trkpt>
      <trkpt lat="47.69339" lon="-2.43541">
        <ele>97.72</ele>
        <time>2015-03-10T12:50:55Z</time>
      </trkpt>
      <trkpt lat="47.69357" lon="-2.4353">
        <ele>99.06</ele>
        <time>2015-03-10T12:51:20Z</time>
      </trkpt>
      <trkpt lat="47.69375" lon="-2.43524">
        <ele>99.84</ele>
        <time>2015-03-10T12:51:31Z</time>
      </trkpt>
      <trkpt lat="47.69394" lon="-2.43516">
        <ele>99.63</ele>
        <time>2015-03-10T12:51:44Z</time>
      </trkpt>
      <trkpt lat="47.69412" lon="-2.43508">
        <ele>100.19</ele>
        <time>2015-03-10T12:51:57Z</time>
      </trkpt>
      <trkpt lat="47.69431" lon="-2.43502">
        <ele>98.5</ele>
        <time>2015-03-10T12:52:14Z</time>
      </trkpt>
      <trkpt lat="47.69449" lon="-2.43501">
        <ele>96.4</ele>
        <time>2015-03-10T12:52:29Z</time>
      </trkpt>
      <trkpt lat="47.69468" lon="-2.435">
        <ele>96.2</ele>
        <time>2015-03-10T12:52:42Z</time>
      </trkpt>
      <trkpt lat="47.69487" lon="-2.43494">
        <ele>96.28</ele>
        <time>2015-03-10T12:52:57Z</time>
      </trkpt>
      <trkpt lat="47.69505" lon="-2.43488">
        <ele>96.86</ele>
        <time>2015-03-10T12:53:13Z</time>
      </trkpt>
      <trkpt lat="47.69523" lon="-2.43492">
        <ele>94.82</ele>
        <time>2015-03-10T12:53:52Z</time>
      </trkpt>
      <trkpt lat="47.69527" lon="-2.4352">
        <ele>95.44</ele>
        <time>2015-03-10T12:54:05Z</time>
      </trkpt>
      <trkpt lat="47.69525" lon="-2.43547">
        <ele>96.48</ele>
        <time>2015-03-10T12:54:18Z</time>
      </trkpt>
      <trkpt lat="47.69528" lon="-2.43574">
        <ele>97.95</ele>
        <time>2015-03-10T12:54:38Z</time>
      </trkpt>
      <trkpt lat="47.69526" lon="-2.43602">
        <ele>98.65</ele>
        <time>2015-03-10T12:54:52Z</time>
      </trkpt>
      <trkpt lat="47.69531" lon="-2.43629">
        <ele>97.18</ele>
        <time>2015-03-10T12:55:05Z</time>
      </trkpt>
      <trkpt lat="47.69526" lon="-2.43655">
        <ele>96.8</ele>
        <time>2015-03-10T12:55:22Z</time>
      </trkpt>
      <trkpt lat="47.69529" lon="-2.43682">
        <ele>96.16</ele>
        <time>2015-03-10T12:55:42Z</time>
      </trkpt>
      <trkpt lat="47.69526" lon="-2.43708">
        <ele>96</ele>
        <time>2015-03-10T12:55:57Z</time>
      </trkpt>
      <trkpt lat="47.69526" lon="-2.43736">
        <ele>96.21</ele>
        <time>2015-03-10T12:56:13Z</time>
      </trkpt>
      <trkpt lat="47.69528" lon="-2.43764">
        <ele>94.97</ele>
        <time>2015-03-10T12:56:31Z</time>
      </trkpt>
      <trkpt lat="47.69525" lon="-2.43791">
        <ele>95.42</ele>
        <time>2015-03-10T12:56:44Z</time>
      </trkpt>
      <trkpt lat="47.69526" lon="-2.4382">
        <ele>95.15</ele>
        <time>2015-03-10T12:56:58Z</time>
      </trkpt>
      <trkpt lat="47.69522" lon="-2.43847">
        <ele>95.56</ele>
        <time>2015-03-10T12:57:15Z</time>
      </trkpt>
      <trkpt lat="47.69519" lon="-2.43874">
        <ele>95.51</ele>
        <time>2015-03-10T12:57:29Z</time>
      </trkpt>
      <trkpt lat="47.69514" lon="-2.439">
        <ele>96.57</ele>
        <time>2015-03-10T12:57:45Z</time>
      </trkpt>
      <trkpt lat="47.69505" lon="-2.43923">
        <ele>97.53</ele>
        <time>2015-03-10T12:58:02Z</time>
      </trkpt>
      <trkpt lat="47.69492" lon="-2.43943">
        <ele>98.08</ele>
        <time>2015-03-10T12:58:17Z</time>
      </trkpt>
      <trkpt lat="47.69477" lon="-2.43961">
        <ele>98.22</ele>
        <time>2015-03-10T12:58:35Z</time>
      </trkpt>
      <trkpt lat="47.69462" lon="-2.43978">
        <ele>97.15</ele>
        <time>2015-03-10T12:58:54Z</time>
      </trkpt>
      <trkpt lat="47.69447" lon="-2.43994">
        <ele>95.82</ele>
        <time>2015-03-10T12:59:11Z</time>
      </trkpt>
      <trkpt lat="47.69431" lon="-2.44006">
        <ele>95.14</ele>
        <time>2015-03-10T12:59:25Z</time>
      </trkpt>
      <trkpt lat="47.69415" lon="-2.44019">
        <ele>95.5</ele>
        <time>2015-03-10T12:59:37Z</time>
      </trkpt>
      <trkpt lat="47.69398" lon="-2.44028">
        <ele>96.41</ele>
        <time>2015-03-10T12:59:51Z</time>
      </trkpt>
      <trkpt lat="47.69381" lon="-2.44037">
        <ele>96.27</ele>
        <time>2015-03-10T13:00:07Z</time>
      </trkpt>
      <trkpt lat="47.69375" lon="-2.44063">
        <ele>95.38</ele>
        <time>2015-03-10T13:00:26Z</time>
      </trkpt>
      <trkpt lat="47.6938" lon="-2.44089">
        <ele>95.25</ele>
        <time>2015-03-10T13:00:42Z</time>
      </trkpt>
      <trkpt lat="47.69389" lon="-2.44112">
        <ele>94.6</ele>
        <time>2015-03-10T13:00:58Z</time>
      </trkpt>
      <trkpt lat="47.69402" lon="-2.44132">
        <ele>93.9</ele>
        <time>2015-03-10T13:01:16Z</time>
      </trkpt>
      <trkpt lat="47.69415" lon="-2.44151">
        <ele>93</ele>
        <time>2015-03-10T13:01:30Z</time>
      </trkpt>
      <trkpt lat="47.69426" lon="-2.44173">
        <ele>92.1</ele>
        <time>2015-03-10T13:01:44Z</time>
      </trkpt>
      <trkpt lat="47.69433" lon="-2.44198">
        <ele>91.96</ele>
        <time>2015-03-10T13:01:59Z</time>
      </trkpt>
      <trkpt lat="47.69441" lon="-2.44223">
        <ele>92.38</ele>
        <time>2015-03-10T13:02:15Z</time>
      </trkpt>
      <trkpt lat="47.69448" lon="-2.44248">
        <ele>92.27</ele>
        <time>2015-03-10T13:02:30Z</time>
      </trkpt>
      <trkpt lat="47.69452" lon="-2.44274">
        <ele>91.81</ele>
        <time>2015-03-10T13:02:47Z</time>
      </trkpt>
      <trkpt lat="47.69456" lon="-2.44302">
        <ele>91.65</ele>
        <time>2015-03-10T13:03:03Z</time>
      </trkpt>
      <trkpt lat="47.69458" lon="-2.44328">
        <ele>92.01</ele>
        <time>2015-03-10T13:03:19Z</time>
      </trkpt>
      <trkpt lat="47.69459" lon="-2.44356">
        <ele>91.26</ele>
        <time>2015-03-10T13:03:34Z</time>
      </trkpt>
      <trkpt lat="47.69463" lon="-2.44383">
        <ele>91.14</ele>
        <time>2015-03-10T13:03:49Z</time>
      </trkpt>
      <trkpt lat="47.69466" lon="-2.4441">
        <ele>90.78</ele>
        <time>2015-03-10T13:04:05Z</time>
      </trkpt>
      <trkpt lat="47.69471" lon="-2.44437">
        <ele>90.61</ele>
        <time>2015-03-10T13:04:23Z</time>
      </trkpt>
      <trkpt lat="47.69476" lon="-2.44463">
        <ele>90.28</ele>
        <time>2015-03-10T13:04:38Z</time>
      </trkpt>
      <trkpt lat="47.69479" lon="-2.44491">
        <ele>89.81</ele>
        <time>2015-03-10T13:04:54Z</time>
      </trkpt>
      <trkpt lat="47.69483" lon="-2.44519">
        <ele>89.47</ele>
        <time>2015-03-10T13:05:10Z</time>
      </trkpt>
      <trkpt lat="47.69485" lon="-2.44547">
        <ele>89.83</ele>
        <time>2015-03-10T13:05:26Z</time>
      </trkpt>
      <trkpt lat="47.69488" lon="-2.44573">
        <ele>90.12</ele>
        <time>2015-03-10T13:05:41Z</time>
      </trkpt>
      <trkpt lat="47.69488" lon="-2.446">
        <ele>90.36</ele>
        <time>2015-03-10T13:06:01Z</time>
      </trkpt>
      <trkpt lat="47.69496" lon="-2.44626">
        <ele>89</ele>
        <time>2015-03-10T13:06:16Z</time>
      </trkpt>
      <trkpt lat="47.69503" lon="-2.44651">
        <ele>88.67</ele>
        <time>2015-03-10T13:06:47Z</time>
      </trkpt>
      <trkpt lat="47.69504" lon="-2.44679">
        <ele>87.82</ele>
        <time>2015-03-10T13:07:05Z</time>
      </trkpt>
      <trkpt lat="47.69498" lon="-2.44706">
        <ele>88.2</ele>
        <time>2015-03-10T13:07:20Z</time>
      </trkpt>
      <trkpt lat="47.69491" lon="-2.44731">
        <ele>87.84</ele>
        <time>2015-03-10T13:07:35Z</time>
      </trkpt>
      <trkpt lat="47.69484" lon="-2.44758">
        <ele>88.62</ele>
        <time>2015-03-10T13:07:53Z</time>
      </trkpt>
      <trkpt lat="47.69479" lon="-2.44784">
        <ele>90.06</ele>
        <time>2015-03-10T13:08:14Z</time>
      </trkpt>
      <trkpt lat="47.69472" lon="-2.4481">
        <ele>91.5</ele>
        <time>2015-03-10T13:08:31Z</time>
      </trkpt>
      <trkpt lat="47.69467" lon="-2.44837">
        <ele>92.45</ele>
        <time>2015-03-10T13:08:47Z</time>
      </trkpt>
      <trkpt lat="47.69459" lon="-2.44861">
        <ele>94.66</ele>
        <time>2015-03-10T13:09:08Z</time>
      </trkpt>
      <trkpt lat="47.69458" lon="-2.44889">
        <ele>95.21</ele>
        <time>2015-03-10T13:09:24Z</time>
      </trkpt>
      <trkpt lat="47.6946" lon="-2.44916">
        <ele>95.91</ele>
        <time>2015-03-10T13:09:41Z</time>
      </trkpt>
      <trkpt lat="47.6946" lon="-2.44944">
        <ele>96.44</ele>
        <time>2015-03-10T13:10:01Z</time>
      </trkpt>
      <trkpt lat="47.69464" lon="-2.44972">
        <ele>96.44</ele>
        <time>2015-03-10T13:10:20Z</time>
      </trkpt>
      <trkpt lat="47.69468" lon="-2.45">
        <ele>97.42</ele>
        <time>2015-03-10T13:10:34Z</time>
      </trkpt>
      <trkpt lat="47.6947" lon="-2.45027">
        <ele>98.45</ele>
        <time>2015-03-10T13:10:52Z</time>
      </trkpt>
      <trkpt lat="47.69473" lon="-2.45054">
        <ele>98.18</ele>
        <time>2015-03-10T13:11:10Z</time>
      </trkpt>
      <trkpt lat="47.69476" lon="-2.45081">
        <ele>98.04</ele>
        <time>2015-03-10T13:11:25Z</time>
      </trkpt>
      <trkpt lat="47.69478" lon="-2.45108">
        <ele>97.71</ele>
        <time>2015-03-10T13:11:40Z</time>
      </trkpt>
      <trkpt lat="47.69479" lon="-2.45135">
        <ele>97.82</ele>
        <time>2015-03-10T13:11:54Z</time>
      </trkpt>
      <trkpt lat="47.69482" lon="-2.45163">
        <ele>97.97</ele>
        <time>2015-03-10T13:12:09Z</time>
      </trkpt>
      <trkpt lat="47.69484" lon="-2.45192">
        <ele>98.62</ele>
        <time>2015-03-10T13:12:24Z</time>
      </trkpt>
      <trkpt lat="47.69486" lon="-2.4522">
        <ele>99.8</ele>
        <time>2015-03-10T13:12:39Z</time>
      </trkpt>
      <trkpt lat="47.6949" lon="-2.45248">
        <ele>101.6</ele>
        <time>2015-03-10T13:12:52Z</time>
      </trkpt>
      <trkpt lat="47.69492" lon="-2.45274">
        <ele>105.05</ele>
        <time>2015-03-10T13:13:05Z</time>
      </trkpt>
      <trkpt lat="47.6951" lon="-2.4528">
        <ele>104.35</ele>
        <time>2015-03-10T13:13:33Z</time>
      </trkpt>
      <trkpt lat="47.69528" lon="-2.45276">
        <ele>101.67</ele>
        <time>2015-03-10T13:13:49Z</time>
      </trkpt>
      <trkpt lat="47.69546" lon="-2.4527">
        <ele>98.84</ele>
        <time>2015-03-10T13:14:06Z</time>
      </trkpt>
      <trkpt lat="47.69564" lon="-2.45264">
        <ele>97.36</ele>
        <time>2015-03-10T13:14:21Z</time>
      </trkpt>
      <trkpt lat="47.69582" lon="-2.4526">
        <ele>96.59</ele>
        <time>2015-03-10T13:14:37Z</time>
      </trkpt>
      <trkpt lat="47.696" lon="-2.45255">
        <ele>95.96</ele>
        <time>2015-03-10T13:14:53Z</time>
      </trkpt>
      <trkpt lat="47.69618" lon="-2.45251">
        <ele>96.47</ele>
        <time>2015-03-10T13:15:30Z</time>
      </trkpt>
      <trkpt lat="47.69635" lon="-2.45256">
        <ele>96.39</ele>
        <time>2015-03-10T13:15:46Z</time>
      </trkpt>
      <trkpt lat="47.69648" lon="-2.45277">
        <ele>96.29</ele>
        <time>2015-03-10T13:16:07Z</time>
      </trkpt>
      <trkpt lat="47.69653" lon="-2.45303">
        <ele>97.22</ele>
        <time>2015-03-10T13:16:30Z</time>
      </trkpt>
      <trkpt lat="47.6966" lon="-2.4533">
        <ele>97.99</ele>
        <time>2015-03-10T13:16:45Z</time>
      </trkpt>
      <trkpt lat="47.69667" lon="-2.45356">
        <ele>99.02</ele>
        <time>2015-03-10T13:17:02Z</time>
      </trkpt>
      <trkpt lat="47.69671" lon="-2.45383">
        <ele>99.93</ele>
        <time>2015-03-10T13:17:17Z</time>
      </trkpt>
      <trkpt lat="47.69675" lon="-2.4541">
        <ele>100.86</ele>
        <time>2015-03-10T13:17:34Z</time>
      </trkpt>
      <trkpt lat="47.69677" lon="-2.45438">
        <ele>101.52</ele>
        <time>2015-03-10T13:17:47Z</time>
      </trkpt>
      <trkpt lat="47.69679" lon="-2.45465">
        <ele>102.64</ele>
        <time>2015-03-10T13:18:05Z</time>
      </trkpt>
      <trkpt lat="47.69681" lon="-2.45492">
        <ele>102.91</ele>
        <time>2015-03-10T13:18:21Z</time>
      </trkpt>
      <trkpt lat="47.69681" lon="-2.45521">
        <ele>103.26</ele>
        <time>2015-03-10T13:18:37Z</time>
      </trkpt>
      <trkpt lat="47.6968" lon="-2.45548">
        <ele>103.67</ele>
        <time>2015-03-10T13:18:53Z</time>
      </trkpt>
      <trkpt lat="47.69678" lon="-2.45574">
        <ele>104.33</ele>
        <time>2015-03-10T13:19:07Z</time>
      </trkpt>
      <trkpt lat="47.69677" lon="-2.45602">
        <ele>105.16</ele>
        <time>2015-03-10T13:19:22Z</time>
      </trkpt>
      <trkpt lat="47.69676" lon="-2.45629">
        <ele>106.22</ele>
        <time>2015-03-10T13:19:37Z</time>
      </trkpt>
      <trkpt lat="47.69673" lon="-2.45657">
        <ele>107.42</ele>
        <time>2015-03-10T13:19:55Z</time>
      </trkpt>
      <trkpt lat="47.69672" lon="-2.45684">
        <ele>107.72</ele>
        <time>2015-03-10T13:20:10Z</time>
      </trkpt>
      <trkpt lat="47.6967" lon="-2.45711">
        <ele>107.94</ele>
        <time>2015-03-10T13:20:26Z</time>
      </trkpt>
      <trkpt lat="47.69667" lon="-2.4574">
        <ele>108.15</ele>
        <time>2015-03-10T13:20:42Z</time>
      </trkpt>
      <trkpt lat="47.69665" lon="-2.45766">
        <ele>108.58</ele>
        <time>2015-03-10T13:20:58Z</time>
      </trkpt>
      <trkpt lat="47.69663" lon="-2.45794">
        <ele>109.43</ele>
        <time>2015-03-10T13:21:14Z</time>
      </trkpt>
      <trkpt lat="47.69676" lon="-2.45812">
        <ele>109</ele>
        <time>2015-03-10T13:21:41Z</time>
      </trkpt>
      <trkpt lat="47.69694" lon="-2.45815">
        <ele>107.86</ele>
        <time>2015-03-10T13:21:57Z</time>
      </trkpt>
      <trkpt lat="47.69713" lon="-2.45814">
        <ele>104.96</ele>
        <time>2015-03-10T13:22:14Z</time>
      </trkpt>
      <trkpt lat="47.69732" lon="-2.45816">
        <ele>102.5</ele>
        <time>2015-03-10T13:22:37Z</time>
      </trkpt>
      <trkpt lat="47.69752" lon="-2.45815">
        <ele>100.45</ele>
        <time>2015-03-10T13:22:55Z</time>
      </trkpt>
      <trkpt lat="47.69772" lon="-2.45815">
        <ele>100</ele>
        <time>2015-03-10T13:23:11Z</time>
      </trkpt>
      <trkpt lat="47.6979" lon="-2.45815">
        <ele>97.89</ele>
        <time>2015-03-10T13:23:27Z</time>
      </trkpt>
      <trkpt lat="47.69808" lon="-2.45812">
        <ele>94.97</ele>
        <time>2015-03-10T13:23:42Z</time>
      </trkpt>
      <trkpt lat="47.69827" lon="-2.45813">
        <ele>93.33</ele>
        <time>2015-03-10T13:24:24Z</time>
      </trkpt>
      <trkpt lat="47.69846" lon="-2.45813">
        <ele>92.72</ele>
        <time>2015-03-10T13:24:41Z</time>
      </trkpt>
      <trkpt lat="47.69863" lon="-2.45822">
        <ele>91.41</ele>
        <time>2015-03-10T13:24:57Z</time>
      </trkpt>
      <trkpt lat="47.69882" lon="-2.45826">
        <ele>91.45</ele>
        <time>2015-03-10T13:25:12Z</time>
      </trkpt>
      <trkpt lat="47.699" lon="-2.45828">
        <ele>92.85</ele>
        <time>2015-03-10T13:25:26Z</time>
      </trkpt>
      <trkpt lat="47.69917" lon="-2.45838">
        <ele>93.73</ele>
        <time>2015-03-10T13:26:02Z</time>
      </trkpt>
      <trkpt lat="47.69934" lon="-2.45825">
        <ele>93.59</ele>
        <time>2015-03-10T13:26:35Z</time>
      </trkpt>
      <trkpt lat="47.69951" lon="-2.45814">
        <ele>93.31</ele>
        <time>2015-03-10T13:26:55Z</time>
      </trkpt>
      <trkpt lat="47.69969" lon="-2.45811">
        <ele>93.08</ele>
        <time>2015-03-10T13:27:13Z</time>
      </trkpt>
      <trkpt lat="47.69988" lon="-2.45819">
        <ele>93.16</ele>
        <time>2015-03-10T13:27:29Z</time>
      </trkpt>
      <trkpt lat="47.70005" lon="-2.45828">
        <ele>94.12</ele>
        <time>2015-03-10T13:27:44Z</time>
      </trkpt>
      <trkpt lat="47.70022" lon="-2.45839">
        <ele>93.91</ele>
        <time>2015-03-10T13:27:59Z</time>
      </trkpt>
      <trkpt lat="47.7004" lon="-2.45849">
        <ele>93.84</ele>
        <time>2015-03-10T13:28:14Z</time>
      </trkpt>
      <trkpt lat="47.70056" lon="-2.45861">
        <ele>93.51</ele>
        <time>2015-03-10T13:28:35Z</time>
      </trkpt>
      <trkpt lat="47.70073" lon="-2.45872">
        <ele>92.39</ele>
        <time>2015-03-10T13:28:57Z</time>
      </trkpt>
      <trkpt lat="47.7009" lon="-2.45882">
        <ele>91.64</ele>
        <time>2015-03-10T13:29:24Z</time>
      </trkpt>
      <trkpt lat="47.70108" lon="-2.45888">
        <ele>86.23</ele>
        <time>2015-03-10T13:29:50Z</time>
      </trkpt>
      <trkpt lat="47.70127" lon="-2.45889">
        <ele>84.72</ele>
        <time>2015-03-10T13:30:06Z</time>
      </trkpt>
      <trkpt lat="47.70145" lon="-2.45891">
        <ele>83.34</ele>
        <time>2015-03-10T13:30:23Z</time>
      </trkpt>
      <trkpt lat="47.70164" lon="-2.45895">
        <ele>83.74</ele>
        <time>2015-03-10T13:30:40Z</time>
      </trkpt>
      <trkpt lat="47.70181" lon="-2.45904">
        <ele>82.96</ele>
        <time>2015-03-10T13:30:55Z</time>
      </trkpt>
      <trkpt lat="47.70198" lon="-2.45919">
        <ele>82.53</ele>
        <time>2015-03-10T13:31:11Z</time>
      </trkpt>
      <trkpt lat="47.70212" lon="-2.45938">
        <ele>84.61</ele>
        <time>2015-03-10T13:31:26Z</time>
      </trkpt>
      <trkpt lat="47.70217" lon="-2.45965">
        <ele>87.46</ele>
        <time>2015-03-10T13:31:43Z</time>
      </trkpt>
      <trkpt lat="47.70227" lon="-2.45987">
        <ele>89.34</ele>
        <time>2015-03-10T13:32:03Z</time>
      </trkpt>
      <trkpt lat="47.70239" lon="-2.46007">
        <ele>89.43</ele>
        <time>2015-03-10T13:32:26Z</time>
      </trkpt>
      <trkpt lat="47.70253" lon="-2.46026">
        <ele>88.65</ele>
        <time>2015-03-10T13:32:43Z</time>
      </trkpt>
      <trkpt lat="47.70262" lon="-2.46051">
        <ele>87.42</ele>
        <time>2015-03-10T13:32:55Z</time>
      </trkpt>
      <trkpt lat="47.70268" lon="-2.46077">
        <ele>88.85</ele>
        <time>2015-03-10T13:33:14Z</time>
      </trkpt>
      <trkpt lat="47.70278" lon="-2.46103">
        <ele>90.32</ele>
        <time>2015-03-10T13:34:30Z</time>
      </trkpt>
      <trkpt lat="47.70289" lon="-2.46125">
        <ele>87.01</ele>
        <time>2015-03-10T13:34:58Z</time>
      </trkpt>
      <trkpt lat="47.70301" lon="-2.46148">
        <ele>82.05</ele>
        <time>2015-03-10T13:35:58Z</time>
      </trkpt>
      <trkpt lat="47.70313" lon="-2.46171">
        <ele>81.89</ele>
        <time>2015-03-10T13:36:41Z</time>
      </trkpt>
      <trkpt lat="47.70323" lon="-2.46194">
        <ele>80.93</ele>
        <time>2015-03-10T13:37:07Z</time>
      </trkpt>
      <trkpt lat="47.7034" lon="-2.46202">
        <ele>83.47</ele>
        <time>2015-03-10T13:38:12Z</time>
      </trkpt>
      <trkpt lat="47.70358" lon="-2.46199">
        <ele>86.52</ele>
        <time>2015-03-10T13:38:23Z</time>
      </trkpt>
      <trkpt lat="47.70378" lon="-2.46199">
        <ele>89.06</ele>
        <time>2015-03-10T13:38:52Z</time>
      </trkpt>
      <trkpt lat="47.70396" lon="-2.46202">
        <ele>89.91</ele>
        <time>2015-03-10T13:39:03Z</time>
      </trkpt>
      <trkpt lat="47.70416" lon="-2.46205">
        <ele>90.16</ele>
        <time>2015-03-10T13:39:14Z</time>
      </trkpt>
      <trkpt lat="47.70434" lon="-2.46191">
        <ele>90.02</ele>
        <time>2015-03-10T13:39:34Z</time>
      </trkpt>
      <trkpt lat="47.70446" lon="-2.46172">
        <ele>89.43</ele>
        <time>2015-03-10T13:39:58Z</time>
      </trkpt>
      <trkpt lat="47.70459" lon="-2.46151">
        <ele>87.76</ele>
        <time>2015-03-10T13:40:29Z</time>
      </trkpt>
      <trkpt lat="47.70468" lon="-2.46128">
        <ele>87.73</ele>
        <time>2015-03-10T13:40:40Z</time>
      </trkpt>
      <trkpt lat="47.7048" lon="-2.46106">
        <ele>85.48</ele>
        <time>2015-03-10T13:40:51Z</time>
      </trkpt>
      <trkpt lat="47.70494" lon="-2.46086">
        <ele>84.44</ele>
        <time>2015-03-10T13:41:12Z</time>
      </trkpt>
      <trkpt lat="47.7051" lon="-2.4607">
        <ele>84.44</ele>
        <time>2015-03-10T13:41:26Z</time>
      </trkpt>
      <trkpt lat="47.70526" lon="-2.46054">
        <ele>83.94</ele>
        <time>2015-03-10T13:41:56Z</time>
      </trkpt>
      <trkpt lat="47.70541" lon="-2.46037">
        <ele>83.38</ele>
        <time>2015-03-10T13:42:04Z</time>
      </trkpt>
      <trkpt lat="47.70554" lon="-2.46016">
        <ele>82.09</ele>
        <time>2015-03-10T13:42:20Z</time>
      </trkpt>
      <trkpt lat="47.70565" lon="-2.45993">
        <ele>79.15</ele>
        <time>2015-03-10T13:42:50Z</time>
      </trkpt>
      <trkpt lat="47.70577" lon="-2.45969">
        <ele>79.49</ele>
        <time>2015-03-10T13:43:44Z</time>
      </trkpt>
      <trkpt lat="47.70595" lon="-2.4597">
        <ele>77.3</ele>
        <time>2015-03-10T13:44:17Z</time>
      </trkpt>
      <trkpt lat="47.70612" lon="-2.45982">
        <ele>78.2</ele>
        <time>2015-03-10T13:45:05Z</time>
      </trkpt>
      <trkpt lat="47.70631" lon="-2.45998">
        <ele>78.15</ele>
        <time>2015-03-10T13:45:09Z</time>
      </trkpt>
      <trkpt lat="47.70649" lon="-2.46005">
        <ele>77.51</ele>
        <time>2015-03-10T13:45:15Z</time>
      </trkpt>
      <trkpt lat="47.70664" lon="-2.45985">
        <ele>72.4</ele>
        <time>2015-03-10T13:45:51Z</time>
      </trkpt>
      <trkpt lat="47.70666" lon="-2.45958">
        <ele>71.99</ele>
        <time>2015-03-10T13:46:00Z</time>
      </trkpt>
      <trkpt lat="47.70664" lon="-2.4593">
        <ele>68.79</ele>
        <time>2015-03-10T13:46:15Z</time>
      </trkpt>
      <trkpt lat="47.70663" lon="-2.45902">
        <ele>64.36</ele>
        <time>2015-03-10T13:46:35Z</time>
      </trkpt>
      <trkpt lat="47.7067" lon="-2.45876">
        <ele>61.96</ele>
        <time>2015-03-10T13:46:52Z</time>
      </trkpt>
      <trkpt lat="47.70672" lon="-2.45849">
        <ele>60.28</ele>
        <time>2015-03-10T13:47:12Z</time>
      </trkpt>
      <trkpt lat="47.70667" lon="-2.45822">
        <ele>59.36</ele>
        <time>2015-03-10T13:47:29Z</time>
      </trkpt>
      <trkpt lat="47.70666" lon="-2.45795">
        <ele>58.23</ele>
        <time>2015-03-10T13:47:48Z</time>
      </trkpt>
      <trkpt lat="47.70667" lon="-2.45766">
        <ele>59.27</ele>
        <time>2015-03-10T13:48:01Z</time>
      </trkpt>
      <trkpt lat="47.70676" lon="-2.45739">
        <ele>59.62</ele>
        <time>2015-03-10T13:48:30Z</time>
      </trkpt>
      <trkpt lat="47.7068" lon="-2.4571">
        <ele>60.65</ele>
        <time>2015-03-10T13:48:49Z</time>
      </trkpt>
      <trkpt lat="47.70686" lon="-2.45684">
        <ele>62.1</ele>
        <time>2015-03-10T13:49:01Z</time>
      </trkpt>
      <trkpt lat="47.70695" lon="-2.45661">
        <ele>61.52</ele>
        <time>2015-03-10T13:49:29Z</time>
      </trkpt>
      <trkpt lat="47.70707" lon="-2.45637">
        <ele>61.54</ele>
        <time>2015-03-10T13:49:52Z</time>
      </trkpt>
      <trkpt lat="47.70718" lon="-2.45612">
        <ele>60.22</ele>
        <time>2015-03-10T13:50:14Z</time>
      </trkpt>
      <trkpt lat="47.70728" lon="-2.45588">
        <ele>59.97</ele>
        <time>2015-03-10T13:50:36Z</time>
      </trkpt>
      <trkpt lat="47.70737" lon="-2.45564">
        <ele>61.65</ele>
        <time>2015-03-10T13:50:47Z</time>
      </trkpt>
      <trkpt lat="47.70746" lon="-2.45539">
        <ele>62.43</ele>
        <time>2015-03-10T13:51:00Z</time>
      </trkpt>
      <trkpt lat="47.70749" lon="-2.45513">
        <ele>61.09</ele>
        <time>2015-03-10T13:51:16Z</time>
      </trkpt>
      <trkpt lat="47.70755" lon="-2.45487">
        <ele>58.47</ele>
        <time>2015-03-10T13:51:37Z</time>
      </trkpt>
      <trkpt lat="47.70754" lon="-2.4546">
        <ele>57.63</ele>
        <time>2015-03-10T13:51:52Z</time>
      </trkpt>
      <trkpt lat="47.70755" lon="-2.45432">
        <ele>57.97</ele>
        <time>2015-03-10T13:52:08Z</time>
      </trkpt>
      <trkpt lat="47.70758" lon="-2.45404">
        <ele>57.53</ele>
        <time>2015-03-10T13:52:25Z</time>
      </trkpt>
      <trkpt lat="47.70761" lon="-2.45376">
        <ele>56.4</ele>
        <time>2015-03-10T13:52:42Z</time>
      </trkpt>
      <trkpt lat="47.70765" lon="-2.4535">
        <ele>55.44</ele>
        <time>2015-03-10T13:52:59Z</time>
      </trkpt>
      <trkpt lat="47.70772" lon="-2.45324">
        <ele>55.08</ele>
        <time>2015-03-10T13:53:21Z</time>
      </trkpt>
      <trkpt lat="47.70778" lon="-2.45297">
        <ele>55.48</ele>
        <time>2015-03-10T13:53:38Z</time>
      </trkpt>
      <trkpt lat="47.70782" lon="-2.4527">
        <ele>55.13</ele>
        <time>2015-03-10T13:53:54Z</time>
      </trkpt>
      <trkpt lat="47.70784" lon="-2.45244">
        <ele>52.48</ele>
        <time>2015-03-10T13:54:27Z</time>
      </trkpt>
      <trkpt lat="47.70786" lon="-2.45213">
        <ele>51.61</ele>
        <time>2015-03-10T13:54:47Z</time>
      </trkpt>
      <trkpt lat="47.70793" lon="-2.45185">
        <ele>53.19</ele>
        <time>2015-03-10T13:55:35Z</time>
      </trkpt>
      <trkpt lat="47.70801" lon="-2.4516">
        <ele>54.05</ele>
        <time>2015-03-10T13:55:45Z</time>
      </trkpt>
      <trkpt lat="47.70813" lon="-2.45136">
        <ele>55.55</ele>
        <time>2015-03-10T13:56:01Z</time>
      </trkpt>
      <trkpt lat="47.70826" lon="-2.45115">
        <ele>55.36</ele>
        <time>2015-03-10T13:56:17Z</time>
      </trkpt>
      <trkpt lat="47.70836" lon="-2.45093">
        <ele>56.24</ele>
        <time>2015-03-10T13:56:34Z</time>
      </trkpt>
      <trkpt lat="47.70851" lon="-2.45073">
        <ele>58.36</ele>
        <time>2015-03-10T13:56:56Z</time>
      </trkpt>
      <trkpt lat="47.70863" lon="-2.45052">
        <ele>58.53</ele>
        <time>2015-03-10T13:57:09Z</time>
      </trkpt>
      <trkpt lat="47.70878" lon="-2.45038">
        <ele>57.41</ele>
        <time>2015-03-10T13:57:29Z</time>
      </trkpt>
      <trkpt lat="47.70891" lon="-2.45019">
        <ele>56.43</ele>
        <time>2015-03-10T13:57:47Z</time>
      </trkpt>
      <trkpt lat="47.70905" lon="-2.45002">
        <ele>55.39</ele>
        <time>2015-03-10T13:58:05Z</time>
      </trkpt>
      <trkpt lat="47.70914" lon="-2.44977">
        <ele>54.13</ele>
        <time>2015-03-10T13:58:26Z</time>
      </trkpt>
      <trkpt lat="47.70924" lon="-2.44954">
        <ele>54.67</ele>
        <time>2015-03-10T13:58:41Z</time>
      </trkpt>
      <trkpt lat="47.7094" lon="-2.44939">
        <ele>56.25</ele>
        <time>2015-03-10T13:58:58Z</time>
      </trkpt>
      <trkpt lat="47.70957" lon="-2.44926">
        <ele>57.79</ele>
        <time>2015-03-10T13:59:14Z</time>
      </trkpt>
      <trkpt lat="47.70974" lon="-2.44917">
        <ele>58.23</ele>
        <time>2015-03-10T13:59:39Z</time>
      </trkpt>
      <trkpt lat="47.70993" lon="-2.44914">
        <ele>59.49</ele>
        <time>2015-03-10T13:59:56Z</time>
      </trkpt>
      <trkpt lat="47.71003" lon="-2.44889">
        <ele>57.05</ele>
        <time>2015-03-10T14:00:31Z</time>
      </trkpt>
      <trkpt lat="47.71002" lon="-2.44861">
        <ele>56.23</ele>
        <time>2015-03-10T14:00:42Z</time>
      </trkpt>
      <trkpt lat="47.71001" lon="-2.44834">
        <ele>56.22</ele>
        <time>2015-03-10T14:00:59Z</time>
      </trkpt>
      <trkpt lat="47.71006" lon="-2.44807">
        <ele>54.62</ele>
        <time>2015-03-10T14:01:36Z</time>
      </trkpt>
      <trkpt lat="47.71009" lon="-2.44778">
        <ele>54.45</ele>
        <time>2015-03-10T14:01:51Z</time>
      </trkpt>
      <trkpt lat="47.71024" lon="-2.44764">
        <ele>58.03</ele>
        <time>2015-03-10T14:02:10Z</time>
      </trkpt>
      <trkpt lat="47.71042" lon="-2.44755">
        <ele>59.58</ele>
        <time>2015-03-10T14:02:27Z</time>
      </trkpt>
      <trkpt lat="47.7106" lon="-2.44754">
        <ele>59.69</ele>
        <time>2015-03-10T14:02:42Z</time>
      </trkpt>
      <trkpt lat="47.71076" lon="-2.44737">
        <ele>58.73</ele>
        <time>2015-03-10T14:02:59Z</time>
      </trkpt>
      <trkpt lat="47.71093" lon="-2.44725">
        <ele>59.17</ele>
        <time>2015-03-10T14:03:17Z</time>
      </trkpt>
      <trkpt lat="47.71079" lon="-2.44741">
        <ele>44.31</ele>
        <time>2015-03-10T14:06:37Z</time>
      </trkpt>
      <trkpt lat="47.71061" lon="-2.44749">
        <ele>43.92</ele>
        <time>2015-03-10T14:07:01Z</time>
      </trkpt>
      <trkpt lat="47.71043" lon="-2.44762">
        <ele>43.82</ele>
        <time>2015-03-10T14:07:11Z</time>
      </trkpt>
      <trkpt lat="47.71027" lon="-2.44776">
        <ele>45.13</ele>
        <time>2015-03-10T14:07:25Z</time>
      </trkpt>
      <trkpt lat="47.71011" lon="-2.4479">
        <ele>43.51</ele>
        <time>2015-03-10T14:07:47Z</time>
      </trkpt>
      <trkpt lat="47.71006" lon="-2.44818">
        <ele>45.22</ele>
        <time>2015-03-10T14:08:02Z</time>
      </trkpt>
      <trkpt lat="47.71007" lon="-2.44844">
        <ele>47.13</ele>
        <time>2015-03-10T14:08:13Z</time>
      </trkpt>
      <trkpt lat="47.71005" lon="-2.44872">
        <ele>51.26</ele>
        <time>2015-03-10T14:08:34Z</time>
      </trkpt>
      <trkpt lat="47.71009" lon="-2.44899">
        <ele>58.59</ele>
        <time>2015-03-10T14:10:18Z</time>
      </trkpt>
      <trkpt lat="47.71023" lon="-2.4492">
        <ele>59.25</ele>
        <time>2015-03-10T14:10:29Z</time>
      </trkpt>
      <trkpt lat="47.71041" lon="-2.44918">
        <ele>61.19</ele>
        <time>2015-03-10T14:10:54Z</time>
      </trkpt>
      <trkpt lat="47.71059" lon="-2.44924">
        <ele>62.97</ele>
        <time>2015-03-10T14:11:25Z</time>
      </trkpt>
      <trkpt lat="47.71052" lon="-2.4495">
        <ele>70.57</ele>
        <time>2015-03-10T14:12:29Z</time>
      </trkpt>
      <trkpt lat="47.7107" lon="-2.44945">
        <ele>73.07</ele>
        <time>2015-03-10T14:13:13Z</time>
      </trkpt>
      <trkpt lat="47.71086" lon="-2.44934">
        <ele>74.83</ele>
        <time>2015-03-10T14:14:26Z</time>
      </trkpt>
      <trkpt lat="47.71102" lon="-2.4492">
        <ele>77.12</ele>
        <time>2015-03-10T14:14:55Z</time>
      </trkpt>
      <trkpt lat="47.71117" lon="-2.44906">
        <ele>77.13</ele>
        <time>2015-03-10T14:15:15Z</time>
      </trkpt>
      <trkpt lat="47.71136" lon="-2.44905">
        <ele>77.47</ele>
        <time>2015-03-10T14:15:38Z</time>
      </trkpt>
      <trkpt lat="47.71151" lon="-2.44888">
        <ele>81.79</ele>
        <time>2015-03-10T14:17:48Z</time>
      </trkpt>
      <trkpt lat="47.71168" lon="-2.44878">
        <ele>82.17</ele>
        <time>2015-03-10T14:18:10Z</time>
      </trkpt>
      <trkpt lat="47.71186" lon="-2.44875">
        <ele>81.92</ele>
        <time>2015-03-10T14:18:44Z</time>
      </trkpt>
      <trkpt lat="47.71202" lon="-2.44861">
        <ele>81.37</ele>
        <time>2015-03-10T14:19:03Z</time>
      </trkpt>
      <trkpt lat="47.71213" lon="-2.44839">
        <ele>81.16</ele>
        <time>2015-03-10T14:19:31Z</time>
      </trkpt>
      <trkpt lat="47.71201" lon="-2.44819">
        <ele>78.77</ele>
        <time>2015-03-10T14:21:16Z</time>
      </trkpt>
      <trkpt lat="47.71182" lon="-2.44816">
        <ele>77.97</ele>
        <time>2015-03-10T14:22:21Z</time>
      </trkpt>
      <trkpt lat="47.71165" lon="-2.44826">
        <ele>77.47</ele>
        <time>2015-03-10T14:22:47Z</time>
      </trkpt>
      <trkpt lat="47.71148" lon="-2.44838">
        <ele>74.17</ele>
        <time>2015-03-10T14:23:28Z</time>
      </trkpt>
      <trkpt lat="47.71131" lon="-2.4485">
        <ele>71.61</ele>
        <time>2015-03-10T14:23:41Z</time>
      </trkpt>
      <trkpt lat="47.71114" lon="-2.44858">
        <ele>69.71</ele>
        <time>2015-03-10T14:24:05Z</time>
      </trkpt>
      <trkpt lat="47.71096" lon="-2.44858">
        <ele>63.25</ele>
        <time>2015-03-10T14:26:36Z</time>
      </trkpt>
      <trkpt lat="47.71078" lon="-2.44865">
        <ele>60.78</ele>
        <time>2015-03-10T14:26:56Z</time>
      </trkpt>
      <trkpt lat="47.71057" lon="-2.44871">
        <ele>59.14</ele>
        <time>2015-03-10T14:27:14Z</time>
      </trkpt>
      <trkpt lat="47.71072" lon="-2.44855">
        <ele>50.11</ele>
        <time>2015-03-10T14:28:17Z</time>
      </trkpt>
      <trkpt lat="47.71086" lon="-2.44837">
        <ele>50.33</ele>
        <time>2015-03-10T14:28:27Z</time>
      </trkpt>
      <trkpt lat="47.71099" lon="-2.44816">
        <ele>47.39</ele>
        <time>2015-03-10T14:28:52Z</time>
      </trkpt>
      <trkpt lat="47.71113" lon="-2.44799">
        <ele>47.13</ele>
        <time>2015-03-10T14:29:17Z</time>
      </trkpt>
      <trkpt lat="47.71126" lon="-2.4478">
        <ele>48.46</ele>
        <time>2015-03-10T14:29:48Z</time>
      </trkpt>
      <trkpt lat="47.71138" lon="-2.44757">
        <ele>47.9</ele>
        <time>2015-03-10T14:29:58Z</time>
      </trkpt>
      <trkpt lat="47.71145" lon="-2.44731">
        <ele>47.25</ele>
        <time>2015-03-10T14:30:06Z</time>
      </trkpt>
      <trkpt lat="47.71156" lon="-2.44709">
        <ele>47.04</ele>
        <time>2015-03-10T14:30:18Z</time>
      </trkpt>
      <trkpt lat="47.71172" lon="-2.44693">
        <ele>48.33</ele>
        <time>2015-03-10T14:30:42Z</time>
      </trkpt>
      <trkpt lat="47.71188" lon="-2.4468">
        <ele>48.89</ele>
        <time>2015-03-10T14:31:08Z</time>
      </trkpt>
      <trkpt lat="47.71206" lon="-2.44678">
        <ele>50.61</ele>
        <time>2015-03-10T14:31:21Z</time>
      </trkpt>
      <trkpt lat="47.71224" lon="-2.44671">
        <ele>51.74</ele>
        <time>2015-03-10T14:31:35Z</time>
      </trkpt>
      <trkpt lat="47.7124" lon="-2.44657">
        <ele>53.61</ele>
        <time>2015-03-10T14:31:48Z</time>
      </trkpt>
      <trkpt lat="47.71258" lon="-2.4465">
        <ele>57.34</ele>
        <time>2015-03-10T14:32:08Z</time>
      </trkpt>
      <trkpt lat="47.71275" lon="-2.44639">
        <ele>58.53</ele>
        <time>2015-03-10T14:32:24Z</time>
      </trkpt>
      <trkpt lat="47.71293" lon="-2.44625">
        <ele>61.21</ele>
        <time>2015-03-10T14:33:04Z</time>
      </trkpt>
      <trkpt lat="47.71311" lon="-2.44615">
        <ele>59.45</ele>
        <time>2015-03-10T14:33:18Z</time>
      </trkpt>
      <trkpt lat="47.71327" lon="-2.44603">
        <ele>53.4</ele>
        <time>2015-03-10T14:33:37Z</time>
      </trkpt>
      <trkpt lat="47.71344" lon="-2.44593">
        <ele>49.53</ele>
        <time>2015-03-10T14:33:54Z</time>
      </trkpt>
      <trkpt lat="47.71363" lon="-2.44594">
        <ele>50.31</ele>
        <time>2015-03-10T14:34:04Z</time>
      </trkpt>
      <trkpt lat="47.71382" lon="-2.44594">
        <ele>49.68</ele>
        <time>2015-03-10T14:34:17Z</time>
      </trkpt>
      <trkpt lat="47.71399" lon="-2.44582">
        <ele>47.25</ele>
        <time>2015-03-10T14:34:41Z</time>
      </trkpt>
      <trkpt lat="47.7141" lon="-2.44559">
        <ele>46.03</ele>
        <time>2015-03-10T14:34:55Z</time>
      </trkpt>
      <trkpt lat="47.71423" lon="-2.44538">
        <ele>46.64</ele>
        <time>2015-03-10T14:35:10Z</time>
      </trkpt>
      <trkpt lat="47.71439" lon="-2.44524">
        <ele>46.37</ele>
        <time>2015-03-10T14:35:32Z</time>
      </trkpt>
      <trkpt lat="47.71456" lon="-2.44516">
        <ele>43.71</ele>
        <time>2015-03-10T14:35:49Z</time>
      </trkpt>
      <trkpt lat="47.71474" lon="-2.44506">
        <ele>41.31</ele>
        <time>2015-03-10T14:36:07Z</time>
      </trkpt>
      <trkpt lat="47.71491" lon="-2.44497">
        <ele>39.49</ele>
        <time>2015-03-10T14:36:23Z</time>
      </trkpt>
      <trkpt lat="47.71502" lon="-2.44475">
        <ele>37.5</ele>
        <time>2015-03-10T14:36:46Z</time>
      </trkpt>
      <trkpt lat="47.71509" lon="-2.44449">
        <ele>36.98</ele>
        <time>2015-03-10T14:37:04Z</time>
      </trkpt>
      <trkpt lat="47.71513" lon="-2.44422">
        <ele>36.94</ele>
        <time>2015-03-10T14:37:29Z</time>
      </trkpt>
      <trkpt lat="47.71517" lon="-2.44395">
        <ele>36.04</ele>
        <time>2015-03-10T14:37:52Z</time>
      </trkpt>
      <trkpt lat="47.71523" lon="-2.44369">
        <ele>35.52</ele>
        <time>2015-03-10T14:38:06Z</time>
      </trkpt>
      <trkpt lat="47.71527" lon="-2.44343">
        <ele>35.56</ele>
        <time>2015-03-10T14:38:24Z</time>
      </trkpt>
      <trkpt lat="47.71525" lon="-2.44316">
        <ele>34.08</ele>
        <time>2015-03-10T14:38:41Z</time>
      </trkpt>
      <trkpt lat="47.7152" lon="-2.4429">
        <ele>32.82</ele>
        <time>2015-03-10T14:39:03Z</time>
      </trkpt>
      <trkpt lat="47.71515" lon="-2.44262">
        <ele>31</ele>
        <time>2015-03-10T14:40:36Z</time>
      </trkpt>
      <trkpt lat="47.7151" lon="-2.44234">
        <ele>31.21</ele>
        <time>2015-03-10T14:40:46Z</time>
      </trkpt>
      <trkpt lat="47.71506" lon="-2.44204">
        <ele>32.42</ele>
        <time>2015-03-10T14:41:00Z</time>
      </trkpt>
      <trkpt lat="47.71501" lon="-2.44177">
        <ele>32.77</ele>
        <time>2015-03-10T14:41:25Z</time>
      </trkpt>
      <trkpt lat="47.71507" lon="-2.44151">
        <ele>33.17</ele>
        <time>2015-03-10T14:41:36Z</time>
      </trkpt>
      <trkpt lat="47.71524" lon="-2.44141">
        <ele>34.05</ele>
        <time>2015-03-10T14:41:52Z</time>
      </trkpt>
      <trkpt lat="47.71542" lon="-2.44135">
        <ele>33.43</ele>
        <time>2015-03-10T14:42:09Z</time>
      </trkpt>
      <trkpt lat="47.71555" lon="-2.44114">
        <ele>34.55</ele>
        <time>2015-03-10T14:42:25Z</time>
      </trkpt>
      <trkpt lat="47.71568" lon="-2.44095">
        <ele>36.59</ele>
        <time>2015-03-10T14:42:43Z</time>
      </trkpt>
      <trkpt lat="47.71569" lon="-2.44067">
        <ele>37.18</ele>
        <time>2015-03-10T14:43:03Z</time>
      </trkpt>
      <trkpt lat="47.71553" lon="-2.44051">
        <ele>37.65</ele>
        <time>2015-03-10T14:43:23Z</time>
      </trkpt>
      <trkpt lat="47.71554" lon="-2.44024">
        <ele>37.81</ele>
        <time>2015-03-10T14:43:57Z</time>
      </trkpt>
      <trkpt lat="47.71547" lon="-2.43998">
        <ele>39.17</ele>
        <time>2015-03-10T14:44:13Z</time>
      </trkpt>
      <trkpt lat="47.71535" lon="-2.43978">
        <ele>40.36</ele>
        <time>2015-03-10T14:44:26Z</time>
      </trkpt>
      <trkpt lat="47.71524" lon="-2.43955">
        <ele>40.1</ele>
        <time>2015-03-10T14:44:47Z</time>
      </trkpt>
      <trkpt lat="47.71512" lon="-2.43935">
        <ele>44.67</ele>
        <time>2015-03-10T14:45:09Z</time>
      </trkpt>
      <trkpt lat="47.71493" lon="-2.4393">
        <ele>49.24</ele>
        <time>2015-03-10T14:46:03Z</time>
      </trkpt>
      <trkpt lat="47.71475" lon="-2.43924">
        <ele>50.49</ele>
        <time>2015-03-10T14:46:16Z</time>
      </trkpt>
      <trkpt lat="47.71457" lon="-2.43922">
        <ele>51.99</ele>
        <time>2015-03-10T14:46:32Z</time>
      </trkpt>
      <trkpt lat="47.71441" lon="-2.43936">
        <ele>51.21</ele>
        <time>2015-03-10T14:46:52Z</time>
      </trkpt>
      <trkpt lat="47.71424" lon="-2.43945">
        <ele>50.77</ele>
        <time>2015-03-10T14:47:08Z</time>
      </trkpt>
      <trkpt lat="47.71406" lon="-2.43952">
        <ele>50.8</ele>
        <time>2015-03-10T14:47:25Z</time>
      </trkpt>
      <trkpt lat="47.71389" lon="-2.4396">
        <ele>49.74</ele>
        <time>2015-03-10T14:47:45Z</time>
      </trkpt>
      <trkpt lat="47.71371" lon="-2.43966">
        <ele>48.86</ele>
        <time>2015-03-10T14:48:01Z</time>
      </trkpt>
      <trkpt lat="47.71352" lon="-2.4397">
        <ele>45.21</ele>
        <time>2015-03-10T14:48:20Z</time>
      </trkpt>
      <trkpt lat="47.71334" lon="-2.43966">
        <ele>44.79</ele>
        <time>2015-03-10T14:48:37Z</time>
      </trkpt>
      <trkpt lat="47.7132" lon="-2.43947">
        <ele>44.19</ele>
        <time>2015-03-10T14:48:54Z</time>
      </trkpt>
      <trkpt lat="47.71309" lon="-2.43925">
        <ele>44</ele>
        <time>2015-03-10T14:49:11Z</time>
      </trkpt>
      <trkpt lat="47.71302" lon="-2.43899">
        <ele>43.77</ele>
        <time>2015-03-10T14:49:31Z</time>
      </trkpt>
      <trkpt lat="47.71296" lon="-2.43873">
        <ele>43.77</ele>
        <time>2015-03-10T14:49:46Z</time>
      </trkpt>
      <trkpt lat="47.71292" lon="-2.43847">
        <ele>43.87</ele>
        <time>2015-03-10T14:50:05Z</time>
      </trkpt>
      <trkpt lat="47.71291" lon="-2.4382">
        <ele>43.57</ele>
        <time>2015-03-10T14:50:22Z</time>
      </trkpt>
      <trkpt lat="47.71289" lon="-2.43793">
        <ele>44.22</ele>
        <time>2015-03-10T14:50:37Z</time>
      </trkpt>
      <trkpt lat="47.71291" lon="-2.43765">
        <ele>45.52</ele>
        <time>2015-03-10T14:50:53Z</time>
      </trkpt>
      <trkpt lat="47.71296" lon="-2.43739">
        <ele>46.6</ele>
        <time>2015-03-10T14:51:12Z</time>
      </trkpt>
      <trkpt lat="47.71303" lon="-2.43714">
        <ele>47.7</ele>
        <time>2015-03-10T14:51:29Z</time>
      </trkpt>
      <trkpt lat="47.71306" lon="-2.43687">
        <ele>48.62</ele>
        <time>2015-03-10T14:51:44Z</time>
      </trkpt>
      <trkpt lat="47.71311" lon="-2.43661">
        <ele>49.92</ele>
        <time>2015-03-10T14:52:04Z</time>
      </trkpt>
      <trkpt lat="47.71316" lon="-2.43635">
        <ele>51.29</ele>
        <time>2015-03-10T14:52:23Z</time>
      </trkpt>
      <trkpt lat="47.71322" lon="-2.43609">
        <ele>51.59</ele>
        <time>2015-03-10T14:52:40Z</time>
      </trkpt>
      <trkpt lat="47.71315" lon="-2.43584">
        <ele>50.71</ele>
        <time>2015-03-10T14:53:00Z</time>
      </trkpt>
      <trkpt lat="47.71299" lon="-2.43596">
        <ele>52.13</ele>
        <time>2015-03-10T14:53:33Z</time>
      </trkpt>
      <trkpt lat="47.71281" lon="-2.43604">
        <ele>53.72</ele>
        <time>2015-03-10T14:53:53Z</time>
      </trkpt>
      <trkpt lat="47.71262" lon="-2.43606">
        <ele>53.88</ele>
        <time>2015-03-10T14:54:23Z</time>
      </trkpt>
      <trkpt lat="47.71244" lon="-2.4361">
        <ele>54.58</ele>
        <time>2015-03-10T14:54:46Z</time>
      </trkpt>
      <trkpt lat="47.71225" lon="-2.43608">
        <ele>54.67</ele>
        <time>2015-03-10T14:55:12Z</time>
      </trkpt>
      <trkpt lat="47.71206" lon="-2.43613">
        <ele>53.55</ele>
        <time>2015-03-10T14:55:24Z</time>
      </trkpt>
      <trkpt lat="47.71187" lon="-2.43611">
        <ele>52.19</ele>
        <time>2015-03-10T14:55:38Z</time>
      </trkpt>
      <trkpt lat="47.71169" lon="-2.43613">
        <ele>53.03</ele>
        <time>2015-03-10T14:55:56Z</time>
      </trkpt>
      <trkpt lat="47.71151" lon="-2.43607">
        <ele>54.66</ele>
        <time>2015-03-10T14:56:30Z</time>
      </trkpt>
      <trkpt lat="47.71132" lon="-2.43605">
        <ele>55.47</ele>
        <time>2015-03-10T14:56:47Z</time>
      </trkpt>
      <trkpt lat="47.71114" lon="-2.43603">
        <ele>55.79</ele>
        <time>2015-03-10T14:57:00Z</time>
      </trkpt>
      <trkpt lat="47.71096" lon="-2.43593">
        <ele>56.51</ele>
        <time>2015-03-10T14:57:27Z</time>
      </trkpt>
      <trkpt lat="47.71078" lon="-2.43585">
        <ele>58.72</ele>
        <time>2015-03-10T14:57:49Z</time>
      </trkpt>
      <trkpt lat="47.71059" lon="-2.43583">
        <ele>59.44</ele>
        <time>2015-03-10T14:58:06Z</time>
      </trkpt>
      <trkpt lat="47.71041" lon="-2.43578">
        <ele>59.24</ele>
        <time>2015-03-10T14:58:21Z</time>
      </trkpt>
      <trkpt lat="47.71023" lon="-2.43572">
        <ele>59.98</ele>
        <time>2015-03-10T14:58:41Z</time>
      </trkpt>
      <trkpt lat="47.71005" lon="-2.43569">
        <ele>61.39</ele>
        <time>2015-03-10T14:59:03Z</time>
      </trkpt>
      <trkpt lat="47.70986" lon="-2.43565">
        <ele>62.8</ele>
        <time>2015-03-10T14:59:22Z</time>
      </trkpt>
      <trkpt lat="47.70969" lon="-2.43558">
        <ele>64.71</ele>
        <time>2015-03-10T14:59:42Z</time>
      </trkpt>
      <trkpt lat="47.70952" lon="-2.43547">
        <ele>66.83</ele>
        <time>2015-03-10T15:00:07Z</time>
      </trkpt>
      <trkpt lat="47.70935" lon="-2.43536">
        <ele>68.85</ele>
        <time>2015-03-10T15:00:29Z</time>
      </trkpt>
      <trkpt lat="47.70917" lon="-2.43526">
        <ele>69.42</ele>
        <time>2015-03-10T15:00:45Z</time>
      </trkpt>
      <trkpt lat="47.709" lon="-2.43517">
        <ele>70.9</ele>
        <time>2015-03-10T15:01:08Z</time>
      </trkpt>
      <trkpt lat="47.70882" lon="-2.43508">
        <ele>74.3</ele>
        <time>2015-03-10T15:01:27Z</time>
      </trkpt>
      <trkpt lat="47.70866" lon="-2.43496">
        <ele>76.73</ele>
        <time>2015-03-10T15:01:44Z</time>
      </trkpt>
      <trkpt lat="47.70849" lon="-2.43483">
        <ele>78.97</ele>
        <time>2015-03-10T15:02:05Z</time>
      </trkpt>
      <trkpt lat="47.70832" lon="-2.43475">
        <ele>81.09</ele>
        <time>2015-03-10T15:02:25Z</time>
      </trkpt>
      <trkpt lat="47.70814" lon="-2.43463">
        <ele>82.37</ele>
        <time>2015-03-10T15:02:46Z</time>
      </trkpt>
      <trkpt lat="47.70797" lon="-2.43454">
        <ele>82.95</ele>
        <time>2015-03-10T15:03:06Z</time>
      </trkpt>
      <trkpt lat="47.7078" lon="-2.43444">
        <ele>84.22</ele>
        <time>2015-03-10T15:03:24Z</time>
      </trkpt>
      <trkpt lat="47.70762" lon="-2.43433">
        <ele>84.64</ele>
        <time>2015-03-10T15:03:42Z</time>
      </trkpt>
      <trkpt lat="47.70744" lon="-2.43427">
        <ele>85.59</ele>
        <time>2015-03-10T15:04:01Z</time>
      </trkpt>
      <trkpt lat="47.70727" lon="-2.43415">
        <ele>86.62</ele>
        <time>2015-03-10T15:04:18Z</time>
      </trkpt>
      <trkpt lat="47.7071" lon="-2.43407">
        <ele>87.27</ele>
        <time>2015-03-10T15:04:37Z</time>
      </trkpt>
      <trkpt lat="47.70693" lon="-2.43394">
        <ele>88.09</ele>
        <time>2015-03-10T15:04:54Z</time>
      </trkpt>
      <trkpt lat="47.70687" lon="-2.43368">
        <ele>88.69</ele>
        <time>2015-03-10T15:05:14Z</time>
      </trkpt>
      <trkpt lat="47.70682" lon="-2.43341">
        <ele>88.06</ele>
        <time>2015-03-10T15:05:45Z</time>
      </trkpt>
      <trkpt lat="47.70673" lon="-2.43316">
        <ele>87.49</ele>
        <time>2015-03-10T15:06:05Z</time>
      </trkpt>
      <trkpt lat="47.70665" lon="-2.43292">
        <ele>87.27</ele>
        <time>2015-03-10T15:06:24Z</time>
      </trkpt>
      <trkpt lat="47.70656" lon="-2.43268">
        <ele>87.2</ele>
        <time>2015-03-10T15:06:41Z</time>
      </trkpt>
      <trkpt lat="47.70651" lon="-2.43241">
        <ele>87.06</ele>
        <time>2015-03-10T15:06:58Z</time>
      </trkpt>
      <trkpt lat="47.70645" lon="-2.43215">
        <ele>86.15</ele>
        <time>2015-03-10T15:07:21Z</time>
      </trkpt>
      <trkpt lat="47.70639" lon="-2.43188">
        <ele>84.41</ele>
        <time>2015-03-10T15:07:39Z</time>
      </trkpt>
      <trkpt lat="47.70634" lon="-2.43161">
        <ele>83.37</ele>
        <time>2015-03-10T15:07:58Z</time>
      </trkpt>
      <trkpt lat="47.70626" lon="-2.43136">
        <ele>82.3</ele>
        <time>2015-03-10T15:08:15Z</time>
      </trkpt>
      <trkpt lat="47.70616" lon="-2.43113">
        <ele>82.35</ele>
        <time>2015-03-10T15:08:33Z</time>
      </trkpt>
      <trkpt lat="47.70611" lon="-2.43087">
        <ele>81.36</ele>
        <time>2015-03-10T15:08:52Z</time>
      </trkpt>
      <trkpt lat="47.70607" lon="-2.4306">
        <ele>80.72</ele>
        <time>2015-03-10T15:09:09Z</time>
      </trkpt>
      <trkpt lat="47.706" lon="-2.43034">
        <ele>80.79</ele>
        <time>2015-03-10T15:09:23Z</time>
      </trkpt>
      <trkpt lat="47.70592" lon="-2.43009">
        <ele>80.76</ele>
        <time>2015-03-10T15:09:39Z</time>
      </trkpt>
      <trkpt lat="47.70586" lon="-2.42982">
        <ele>81.23</ele>
        <time>2015-03-10T15:09:54Z</time>
      </trkpt>
      <trkpt lat="47.70582" lon="-2.42955">
        <ele>82.76</ele>
        <time>2015-03-10T15:10:14Z</time>
      </trkpt>
      <trkpt lat="47.70581" lon="-2.42926">
        <ele>83.72</ele>
        <time>2015-03-10T15:10:31Z</time>
      </trkpt>
      <trkpt lat="47.70578" lon="-2.42899">
        <ele>83.91</ele>
        <time>2015-03-10T15:10:49Z</time>
      </trkpt>
      <trkpt lat="47.70576" lon="-2.42871">
        <ele>85.32</ele>
        <time>2015-03-10T15:11:07Z</time>
      </trkpt>
      <trkpt lat="47.70573" lon="-2.42845">
        <ele>86.29</ele>
        <time>2015-03-10T15:11:25Z</time>
      </trkpt>
      <trkpt lat="47.70572" lon="-2.42817">
        <ele>86.91</ele>
        <time>2015-03-10T15:11:40Z</time>
      </trkpt>
      <trkpt lat="47.7057" lon="-2.4279">
        <ele>87.52</ele>
        <time>2015-03-10T15:11:54Z</time>
      </trkpt>
      <trkpt lat="47.70568" lon="-2.42762">
        <ele>88.98</ele>
        <time>2015-03-10T15:12:15Z</time>
      </trkpt>
      <trkpt lat="47.7057" lon="-2.42734">
        <ele>90.1</ele>
        <time>2015-03-10T15:12:29Z</time>
      </trkpt>
      <trkpt lat="47.70569" lon="-2.42706">
        <ele>89.2</ele>
        <time>2015-03-10T15:12:43Z</time>
      </trkpt>
      <trkpt lat="47.70576" lon="-2.42681">
        <ele>88.4</ele>
        <time>2015-03-10T15:12:58Z</time>
      </trkpt>
      <trkpt lat="47.70588" lon="-2.4266">
        <ele>88.26</ele>
        <time>2015-03-10T15:13:14Z</time>
      </trkpt>
      <trkpt lat="47.70596" lon="-2.42635">
        <ele>88.9</ele>
        <time>2015-03-10T15:13:28Z</time>
      </trkpt>
      <trkpt lat="47.70607" lon="-2.42612">
        <ele>88.98</ele>
        <time>2015-03-10T15:13:49Z</time>
      </trkpt>
      <trkpt lat="47.7062" lon="-2.4259">
        <ele>88.57</ele>
        <time>2015-03-10T15:14:07Z</time>
      </trkpt>
      <trkpt lat="47.7063" lon="-2.42566">
        <ele>88.88</ele>
        <time>2015-03-10T15:14:23Z</time>
      </trkpt>
      <trkpt lat="47.7064" lon="-2.42544">
        <ele>90.24</ele>
        <time>2015-03-10T15:14:37Z</time>
      </trkpt>
      <trkpt lat="47.7065" lon="-2.42521">
        <ele>89.15</ele>
        <time>2015-03-10T15:14:57Z</time>
      </trkpt>
      <trkpt lat="47.7066" lon="-2.42499">
        <ele>88.1</ele>
        <time>2015-03-10T15:15:13Z</time>
      </trkpt>
      <trkpt lat="47.70671" lon="-2.42476">
        <ele>86.97</ele>
        <time>2015-03-10T15:15:31Z</time>
      </trkpt>
      <trkpt lat="47.70682" lon="-2.42455">
        <ele>86.33</ele>
        <time>2015-03-10T15:15:48Z</time>
      </trkpt>
      <trkpt lat="47.70692" lon="-2.42432">
        <ele>86.31</ele>
        <time>2015-03-10T15:16:06Z</time>
      </trkpt>
      <trkpt lat="47.70702" lon="-2.42409">
        <ele>86.11</ele>
        <time>2015-03-10T15:16:23Z</time>
      </trkpt>
      <trkpt lat="47.70713" lon="-2.42387">
        <ele>86.22</ele>
        <time>2015-03-10T15:16:44Z</time>
      </trkpt>
      <trkpt lat="47.70729" lon="-2.42374">
        <ele>84.17</ele>
        <time>2015-03-10T15:17:00Z</time>
      </trkpt>
      <trkpt lat="47.70747" lon="-2.42369">
        <ele>83.44</ele>
        <time>2015-03-10T15:17:15Z</time>
      </trkpt>
      <trkpt lat="47.70765" lon="-2.42362">
        <ele>82.78</ele>
        <time>2015-03-10T15:17:31Z</time>
      </trkpt>
      <trkpt lat="47.70783" lon="-2.42355">
        <ele>82.8</ele>
        <time>2015-03-10T15:17:46Z</time>
      </trkpt>
      <trkpt lat="47.708" lon="-2.42345">
        <ele>84.61</ele>
        <time>2015-03-10T15:18:02Z</time>
      </trkpt>
      <trkpt lat="47.70819" lon="-2.42341">
        <ele>85.82</ele>
        <time>2015-03-10T15:18:21Z</time>
      </trkpt>
      <trkpt lat="47.70836" lon="-2.42332">
        <ele>83.06</ele>
        <time>2015-03-10T15:18:46Z</time>
      </trkpt>
      <trkpt lat="47.70847" lon="-2.4231">
        <ele>79.66</ele>
        <time>2015-03-10T15:19:03Z</time>
      </trkpt>
      <trkpt lat="47.70858" lon="-2.42287">
        <ele>75.81</ele>
        <time>2015-03-10T15:19:22Z</time>
      </trkpt>
      <trkpt lat="47.70868" lon="-2.42264">
        <ele>73.51</ele>
        <time>2015-03-10T15:19:40Z</time>
      </trkpt>
      <trkpt lat="47.70878" lon="-2.42241">
        <ele>71.5</ele>
        <time>2015-03-10T15:19:56Z</time>
      </trkpt>
      <trkpt lat="47.7089" lon="-2.4222">
        <ele>69.09</ele>
        <time>2015-03-10T15:20:13Z</time>
      </trkpt>
      <trkpt lat="47.70906" lon="-2.42206">
        <ele>64.47</ele>
        <time>2015-03-10T15:20:31Z</time>
      </trkpt>
      <trkpt lat="47.70924" lon="-2.4221">
        <ele>64.14</ele>
        <time>2015-03-10T15:20:48Z</time>
      </trkpt>
      <trkpt lat="47.70943" lon="-2.42208">
        <ele>63.17</ele>
        <time>2015-03-10T15:21:05Z</time>
      </trkpt>
      <trkpt lat="47.70962" lon="-2.42212">
        <ele>61.26</ele>
        <time>2015-03-10T15:21:23Z</time>
      </trkpt>
      <trkpt lat="47.7098" lon="-2.42206">
        <ele>60.1</ele>
        <time>2015-03-10T15:21:43Z</time>
      </trkpt>
      <trkpt lat="47.70997" lon="-2.42193">
        <ele>59.54</ele>
        <time>2015-03-10T15:21:57Z</time>
      </trkpt>
      <trkpt lat="47.71015" lon="-2.42191">
        <ele>57.04</ele>
        <time>2015-03-10T15:22:15Z</time>
      </trkpt>
      <trkpt lat="47.71033" lon="-2.42186">
        <ele>53.16</ele>
        <time>2015-03-10T15:22:47Z</time>
      </trkpt>
      <trkpt lat="47.71051" lon="-2.42177">
        <ele>52.1</ele>
        <time>2015-03-10T15:23:07Z</time>
      </trkpt>
      <trkpt lat="47.71068" lon="-2.42166">
        <ele>51.84</ele>
        <time>2015-03-10T15:23:24Z</time>
      </trkpt>
      <trkpt lat="47.71086" lon="-2.42158">
        <ele>52.13</ele>
        <time>2015-03-10T15:23:42Z</time>
      </trkpt>
      <trkpt lat="47.71079" lon="-2.42133">
        <ele>50.37</ele>
        <time>2015-03-10T15:25:14Z</time>
      </trkpt>
      <trkpt lat="47.71061" lon="-2.42129">
        <ele>51.5</ele>
        <time>2015-03-10T15:25:29Z</time>
      </trkpt>
      <trkpt lat="47.71045" lon="-2.42114">
        <ele>51.96</ele>
        <time>2015-03-10T15:25:45Z</time>
      </trkpt>
      <trkpt lat="47.71027" lon="-2.42104">
        <ele>54.31</ele>
        <time>2015-03-10T15:25:59Z</time>
      </trkpt>
      <trkpt lat="47.71009" lon="-2.42093">
        <ele>56.47</ele>
        <time>2015-03-10T15:26:26Z</time>
      </trkpt>
      <trkpt lat="47.70991" lon="-2.42084">
        <ele>57.74</ele>
        <time>2015-03-10T15:26:42Z</time>
      </trkpt>
      <trkpt lat="47.70974" lon="-2.42071">
        <ele>58.56</ele>
        <time>2015-03-10T15:26:55Z</time>
      </trkpt>
      <trkpt lat="47.70957" lon="-2.42064">
        <ele>57.84</ele>
        <time>2015-03-10T15:27:12Z</time>
      </trkpt>
      <trkpt lat="47.7094" lon="-2.42055">
        <ele>55.7</ele>
        <time>2015-03-10T15:27:34Z</time>
      </trkpt>
      <trkpt lat="47.70923" lon="-2.42042">
        <ele>54.73</ele>
        <time>2015-03-10T15:27:43Z</time>
      </trkpt>
      <trkpt lat="47.70905" lon="-2.42035">
        <ele>56.72</ele>
        <time>2015-03-10T15:28:02Z</time>
      </trkpt>
      <trkpt lat="47.70887" lon="-2.42028">
        <ele>57.78</ele>
        <time>2015-03-10T15:28:18Z</time>
      </trkpt>
      <trkpt lat="47.70868" lon="-2.42023">
        <ele>59.21</ele>
        <time>2015-03-10T15:28:34Z</time>
      </trkpt>
      <trkpt lat="47.7088" lon="-2.42001">
        <ele>59.35</ele>
        <time>2015-03-10T15:29:34Z</time>
      </trkpt>
      <trkpt lat="47.70886" lon="-2.41976">
        <ele>60.85</ele>
        <time>2015-03-10T15:30:02Z</time>
      </trkpt>
      <trkpt lat="47.70891" lon="-2.41949">
        <ele>61.72</ele>
        <time>2015-03-10T15:30:30Z</time>
      </trkpt>
      <trkpt lat="47.70888" lon="-2.41922">
        <ele>63.12</ele>
        <time>2015-03-10T15:30:55Z</time>
      </trkpt>
      <trkpt lat="47.70884" lon="-2.41895">
        <ele>63.44</ele>
        <time>2015-03-10T15:31:18Z</time>
      </trkpt>
      <trkpt lat="47.70886" lon="-2.41867">
        <ele>63.92</ele>
        <time>2015-03-10T15:31:41Z</time>
      </trkpt>
      <trkpt lat="47.70886" lon="-2.41839">
        <ele>64.2</ele>
        <time>2015-03-10T15:31:59Z</time>
      </trkpt>
      <trkpt lat="47.70884" lon="-2.41812">
        <ele>66.11</ele>
        <time>2015-03-10T15:32:26Z</time>
      </trkpt>
      <trkpt lat="47.70891" lon="-2.41787">
        <ele>69.15</ele>
        <time>2015-03-10T15:32:47Z</time>
      </trkpt>
      <trkpt lat="47.70893" lon="-2.41758">
        <ele>67.98</ele>
        <time>2015-03-10T15:33:14Z</time>
      </trkpt>
      <trkpt lat="47.70889" lon="-2.4173">
        <ele>70.72</ele>
        <time>2015-03-10T15:33:42Z</time>
      </trkpt>
      <trkpt lat="47.70871" lon="-2.41733">
        <ele>75.93</ele>
        <time>2015-03-10T15:34:02Z</time>
      </trkpt>
      <trkpt lat="47.70852" lon="-2.41742">
        <ele>76.91</ele>
        <time>2015-03-10T15:34:17Z</time>
      </trkpt>
      <trkpt lat="47.70833" lon="-2.41748">
        <ele>81.74</ele>
        <time>2015-03-10T15:34:36Z</time>
      </trkpt>
      <trkpt lat="47.70815" lon="-2.41752">
        <ele>84.28</ele>
        <time>2015-03-10T15:34:52Z</time>
      </trkpt>
      <trkpt lat="47.70797" lon="-2.41752">
        <ele>86.43</ele>
        <time>2015-03-10T15:35:09Z</time>
      </trkpt>
      <trkpt lat="47.7078" lon="-2.41759">
        <ele>87.34</ele>
        <time>2015-03-10T15:35:25Z</time>
      </trkpt>
      <trkpt lat="47.7076" lon="-2.41759">
        <ele>87.84</ele>
        <time>2015-03-10T15:35:40Z</time>
      </trkpt>
      <trkpt lat="47.70741" lon="-2.41763">
        <ele>88.11</ele>
        <time>2015-03-10T15:35:53Z</time>
      </trkpt>
      <trkpt lat="47.70723" lon="-2.41763">
        <ele>87.19</ele>
        <time>2015-03-10T15:36:11Z</time>
      </trkpt>
      <trkpt lat="47.70704" lon="-2.41768">
        <ele>85.77</ele>
        <time>2015-03-10T15:36:28Z</time>
      </trkpt>
      <trkpt lat="47.70686" lon="-2.41774">
        <ele>85.86</ele>
        <time>2015-03-10T15:36:40Z</time>
      </trkpt>
      <trkpt lat="47.70663" lon="-2.41776">
        <ele>86.92</ele>
        <time>2015-03-10T15:37:01Z</time>
      </trkpt>
      <trkpt lat="47.70644" lon="-2.41779">
        <ele>84.07</ele>
        <time>2015-03-10T15:37:15Z</time>
      </trkpt>
      <trkpt lat="47.70626" lon="-2.41781">
        <ele>84.57</ele>
        <time>2015-03-10T15:37:34Z</time>
      </trkpt>
      <trkpt lat="47.70608" lon="-2.41783">
        <ele>85.64</ele>
        <time>2015-03-10T15:37:48Z</time>
      </trkpt>
      <trkpt lat="47.70598" lon="-2.41761">
        <ele>84.68</ele>
        <time>2015-03-10T15:38:01Z</time>
      </trkpt>
      <trkpt lat="47.70582" lon="-2.41747">
        <ele>82.81</ele>
        <time>2015-03-10T15:38:17Z</time>
      </trkpt>
      <trkpt lat="47.70569" lon="-2.41727">
        <ele>81.21</ele>
        <time>2015-03-10T15:38:35Z</time>
      </trkpt>
      <trkpt lat="47.70554" lon="-2.41712">
        <ele>81.47</ele>
        <time>2015-03-10T15:38:51Z</time>
      </trkpt>
      <trkpt lat="47.70537" lon="-2.417">
        <ele>80.55</ele>
        <time>2015-03-10T15:39:06Z</time>
      </trkpt>
      <trkpt lat="47.70518" lon="-2.41699">
        <ele>80.53</ele>
        <time>2015-03-10T15:39:20Z</time>
      </trkpt>
      <trkpt lat="47.705" lon="-2.41699">
        <ele>79.97</ele>
        <time>2015-03-10T15:39:36Z</time>
      </trkpt>
      <trkpt lat="47.70482" lon="-2.41688">
        <ele>77.85</ele>
        <time>2015-03-10T15:40:14Z</time>
      </trkpt>
      <trkpt lat="47.70466" lon="-2.41701">
        <ele>77.59</ele>
        <time>2015-03-10T15:40:52Z</time>
      </trkpt>
      <trkpt lat="47.70447" lon="-2.417">
        <ele>76.85</ele>
        <time>2015-03-10T15:41:03Z</time>
      </trkpt>
      <trkpt lat="47.70429" lon="-2.41698">
        <ele>76.18</ele>
        <time>2015-03-10T15:41:19Z</time>
      </trkpt>
      <trkpt lat="47.7041" lon="-2.417">
        <ele>75.72</ele>
        <time>2015-03-10T15:41:34Z</time>
      </trkpt>
      <trkpt lat="47.70391" lon="-2.41702">
        <ele>75.87</ele>
        <time>2015-03-10T15:41:50Z</time>
      </trkpt>
      <trkpt lat="47.70372" lon="-2.41704">
        <ele>74.64</ele>
        <time>2015-03-10T15:42:07Z</time>
      </trkpt>
      <trkpt lat="47.70354" lon="-2.41709">
        <ele>73.85</ele>
        <time>2015-03-10T15:42:21Z</time>
      </trkpt>
      <trkpt lat="47.70336" lon="-2.41715">
        <ele>72.21</ele>
        <time>2015-03-10T15:42:35Z</time>
      </trkpt>
      <trkpt lat="47.70319" lon="-2.41727">
        <ele>71</ele>
        <time>2015-03-10T15:42:51Z</time>
      </trkpt>
      <trkpt lat="47.70301" lon="-2.41732">
        <ele>70.6</ele>
        <time>2015-03-10T15:43:06Z</time>
      </trkpt>
      <trkpt lat="47.70282" lon="-2.41737">
        <ele>70.43</ele>
        <time>2015-03-10T15:43:21Z</time>
      </trkpt>
      <trkpt lat="47.70264" lon="-2.41742">
        <ele>70.86</ele>
        <time>2015-03-10T15:43:36Z</time>
      </trkpt>
      <trkpt lat="47.70247" lon="-2.41753">
        <ele>72.21</ele>
        <time>2015-03-10T15:43:51Z</time>
      </trkpt>
      <trkpt lat="47.70234" lon="-2.41774">
        <ele>72.11</ele>
        <time>2015-03-10T15:44:11Z</time>
      </trkpt>
      <trkpt lat="47.70233" lon="-2.41802">
        <ele>70.76</ele>
        <time>2015-03-10T15:44:29Z</time>
      </trkpt>
      <trkpt lat="47.70232" lon="-2.4183">
        <ele>69.98</ele>
        <time>2015-03-10T15:44:44Z</time>
      </trkpt>
      <trkpt lat="47.70229" lon="-2.41858">
        <ele>71.38</ele>
        <time>2015-03-10T15:44:59Z</time>
      </trkpt>
      <trkpt lat="47.70227" lon="-2.41885">
        <ele>70.28</ele>
        <time>2015-03-10T15:45:13Z</time>
      </trkpt>
      <trkpt lat="47.70225" lon="-2.41913">
        <ele>70.56</ele>
        <time>2015-03-10T15:45:30Z</time>
      </trkpt>
      <trkpt lat="47.70221" lon="-2.41941">
        <ele>69.73</ele>
        <time>2015-03-10T15:45:45Z</time>
      </trkpt>
      <trkpt lat="47.70217" lon="-2.41967">
        <ele>69.54</ele>
        <time>2015-03-10T15:46:01Z</time>
      </trkpt>
      <trkpt lat="47.70215" lon="-2.41994">
        <ele>69.5</ele>
        <time>2015-03-10T15:46:16Z</time>
      </trkpt>
      <trkpt lat="47.70209" lon="-2.42021">
        <ele>70.24</ele>
        <time>2015-03-10T15:46:33Z</time>
      </trkpt>
      <trkpt lat="47.70206" lon="-2.42047">
        <ele>71.12</ele>
        <time>2015-03-10T15:46:48Z</time>
      </trkpt>
      <trkpt lat="47.70202" lon="-2.42075">
        <ele>71.56</ele>
        <time>2015-03-10T15:47:04Z</time>
      </trkpt>
      <trkpt lat="47.70198" lon="-2.42101">
        <ele>71.91</ele>
        <time>2015-03-10T15:47:19Z</time>
      </trkpt>
      <trkpt lat="47.70194" lon="-2.42128">
        <ele>73.54</ele>
        <time>2015-03-10T15:47:35Z</time>
      </trkpt>
      <trkpt lat="47.70187" lon="-2.42154">
        <ele>75.09</ele>
        <time>2015-03-10T15:47:51Z</time>
      </trkpt>
      <trkpt lat="47.70181" lon="-2.42179">
        <ele>74.58</ele>
        <time>2015-03-10T15:48:06Z</time>
      </trkpt>
      <trkpt lat="47.70176" lon="-2.42205">
        <ele>73.82</ele>
        <time>2015-03-10T15:48:22Z</time>
      </trkpt>
      <trkpt lat="47.70172" lon="-2.42232">
        <ele>74.09</ele>
        <time>2015-03-10T15:48:37Z</time>
      </trkpt>
      <trkpt lat="47.70176" lon="-2.4226">
        <ele>75.29</ele>
        <time>2015-03-10T15:48:53Z</time>
      </trkpt>
      <trkpt lat="47.70182" lon="-2.42286">
        <ele>76.59</ele>
        <time>2015-03-10T15:49:08Z</time>
      </trkpt>
      <trkpt lat="47.7019" lon="-2.4231">
        <ele>78.1</ele>
        <time>2015-03-10T15:49:50Z</time>
      </trkpt>
      <trkpt lat="47.70191" lon="-2.42337">
        <ele>76.74</ele>
        <time>2015-03-10T15:50:21Z</time>
      </trkpt>
      <trkpt lat="47.70189" lon="-2.42364">
        <ele>75.37</ele>
        <time>2015-03-10T15:50:41Z</time>
      </trkpt>
      <trkpt lat="47.7019" lon="-2.42336">
        <ele>77.33</ele>
        <time>2015-03-10T15:52:43Z</time>
      </trkpt>
      <trkpt lat="47.70189" lon="-2.42308">
        <ele>77.45</ele>
        <time>2015-03-10T15:53:01Z</time>
      </trkpt>
      <trkpt lat="47.70183" lon="-2.42283">
        <ele>77.19</ele>
        <time>2015-03-10T15:53:25Z</time>
      </trkpt>
      <trkpt lat="47.70178" lon="-2.42255">
        <ele>77.99</ele>
        <time>2015-03-10T15:53:40Z</time>
      </trkpt>
      <trkpt lat="47.70177" lon="-2.42228">
        <ele>79.99</ele>
        <time>2015-03-10T15:53:58Z</time>
      </trkpt>
      <trkpt lat="47.70179" lon="-2.422">
        <ele>80.7</ele>
        <time>2015-03-10T15:54:16Z</time>
      </trkpt>
      <trkpt lat="47.70178" lon="-2.42173">
        <ele>80.32</ele>
        <time>2015-03-10T15:54:34Z</time>
      </trkpt>
      <trkpt lat="47.70161" lon="-2.42167">
        <ele>81.04</ele>
        <time>2015-03-10T15:54:47Z</time>
      </trkpt>
      <trkpt lat="47.70143" lon="-2.4216">
        <ele>79.76</ele>
        <time>2015-03-10T15:55:05Z</time>
      </trkpt>
      <trkpt lat="47.70125" lon="-2.42165">
        <ele>79.86</ele>
        <time>2015-03-10T15:55:21Z</time>
      </trkpt>
      <trkpt lat="47.70107" lon="-2.42173">
        <ele>82.13</ele>
        <time>2015-03-10T15:55:31Z</time>
      </trkpt>
      <trkpt lat="47.70093" lon="-2.4219">
        <ele>83.02</ele>
        <time>2015-03-10T15:55:48Z</time>
      </trkpt>
      <trkpt lat="47.70083" lon="-2.42213">
        <ele>82.33</ele>
        <time>2015-03-10T15:56:04Z</time>
      </trkpt>
      <trkpt lat="47.70072" lon="-2.42236">
        <ele>83.77</ele>
        <time>2015-03-10T15:56:24Z</time>
      </trkpt>
      <trkpt lat="47.70061" lon="-2.42257">
        <ele>84.66</ele>
        <time>2015-03-10T15:56:37Z</time>
      </trkpt>
      <trkpt lat="47.70046" lon="-2.42273">
        <ele>84.39</ele>
        <time>2015-03-10T15:56:51Z</time>
      </trkpt>
      <trkpt lat="47.70034" lon="-2.42294">
        <ele>84.49</ele>
        <time>2015-03-10T15:57:01Z</time>
      </trkpt>
      <trkpt lat="47.70022" lon="-2.42314">
        <ele>84.65</ele>
        <time>2015-03-10T15:57:16Z</time>
      </trkpt>
      <trkpt lat="47.7001" lon="-2.42335">
        <ele>85.85</ele>
        <time>2015-03-10T15:57:31Z</time>
      </trkpt>
      <trkpt lat="47.69997" lon="-2.42358">
        <ele>86.64</ele>
        <time>2015-03-10T15:57:50Z</time>
      </trkpt>
      <trkpt lat="47.69987" lon="-2.42381">
        <ele>87.47</ele>
        <time>2015-03-10T15:58:01Z</time>
      </trkpt>
      <trkpt lat="47.69977" lon="-2.42404">
        <ele>88.4</ele>
        <time>2015-03-10T15:58:15Z</time>
      </trkpt>
      <trkpt lat="47.69968" lon="-2.42429">
        <ele>90.23</ele>
        <time>2015-03-10T15:58:30Z</time>
      </trkpt>
      <trkpt lat="47.69955" lon="-2.42449">
        <ele>89.79</ele>
        <time>2015-03-10T15:58:52Z</time>
      </trkpt>
      <trkpt lat="47.69943" lon="-2.4247">
        <ele>88.17</ele>
        <time>2015-03-10T15:59:12Z</time>
      </trkpt>
      <trkpt lat="47.69929" lon="-2.4249">
        <ele>89.05</ele>
        <time>2015-03-10T15:59:27Z</time>
      </trkpt>
      <trkpt lat="47.69915" lon="-2.42511">
        <ele>91.37</ele>
        <time>2015-03-10T15:59:39Z</time>
      </trkpt>
      <trkpt lat="47.69899" lon="-2.42522">
        <ele>92.75</ele>
        <time>2015-03-10T15:59:55Z</time>
      </trkpt>
      <trkpt lat="47.6988" lon="-2.42527">
        <ele>92.12</ele>
        <time>2015-03-10T16:00:10Z</time>
      </trkpt>
      <trkpt lat="47.69862" lon="-2.42533">
        <ele>91.33</ele>
        <time>2015-03-10T16:00:26Z</time>
      </trkpt>
      <trkpt lat="47.69844" lon="-2.42534">
        <ele>90.82</ele>
        <time>2015-03-10T16:00:39Z</time>
      </trkpt>
      <trkpt lat="47.69825" lon="-2.42537">
        <ele>89.91</ele>
        <time>2015-03-10T16:00:53Z</time>
      </trkpt>
      <trkpt lat="47.69806" lon="-2.4254">
        <ele>89.87</ele>
        <time>2015-03-10T16:01:10Z</time>
      </trkpt>
      <trkpt lat="47.69788" lon="-2.42539">
        <ele>89.88</ele>
        <time>2015-03-10T16:01:25Z</time>
      </trkpt>
      <trkpt lat="47.69769" lon="-2.42545">
        <ele>89.2</ele>
        <time>2015-03-10T16:01:40Z</time>
      </trkpt>
      <trkpt lat="47.69751" lon="-2.42547">
        <ele>88.82</ele>
        <time>2015-03-10T16:01:55Z</time>
      </trkpt>
      <trkpt lat="47.69733" lon="-2.42553">
        <ele>89.41</ele>
        <time>2015-03-10T16:02:10Z</time>
      </trkpt>
      <trkpt lat="47.69714" lon="-2.42556">
        <ele>88.21</ele>
        <time>2015-03-10T16:02:25Z</time>
      </trkpt>
      <trkpt lat="47.69695" lon="-2.42557">
        <ele>87.67</ele>
        <time>2015-03-10T16:02:41Z</time>
      </trkpt>
      <trkpt lat="47.69677" lon="-2.42558">
        <ele>88.6</ele>
        <time>2015-03-10T16:02:55Z</time>
      </trkpt>
      <trkpt lat="47.69658" lon="-2.42562">
        <ele>89.07</ele>
        <time>2015-03-10T16:03:12Z</time>
      </trkpt>
      <trkpt lat="47.6964" lon="-2.42564">
        <ele>89.28</ele>
        <time>2015-03-10T16:03:27Z</time>
      </trkpt>
      <trkpt lat="47.69621" lon="-2.42568">
        <ele>89.43</ele>
        <time>2015-03-10T16:03:41Z</time>
      </trkpt>
      <trkpt lat="47.69603" lon="-2.42573">
        <ele>89.63</ele>
        <time>2015-03-10T16:03:57Z</time>
      </trkpt>
      <trkpt lat="47.69589" lon="-2.42592">
        <ele>90.43</ele>
        <time>2015-03-10T16:04:12Z</time>
      </trkpt>
      <trkpt lat="47.69584" lon="-2.42617">
        <ele>92.54</ele>
        <time>2015-03-10T16:04:29Z</time>
      </trkpt>
      <trkpt lat="47.6958" lon="-2.42644">
        <ele>93.63</ele>
        <time>2015-03-10T16:04:43Z</time>
      </trkpt>
      <trkpt lat="47.69573" lon="-2.42671">
        <ele>93.7</ele>
        <time>2015-03-10T16:04:58Z</time>
      </trkpt>
      <trkpt lat="47.69568" lon="-2.42698">
        <ele>94.26</ele>
        <time>2015-03-10T16:05:13Z</time>
      </trkpt>
      <trkpt lat="47.69567" lon="-2.42725">
        <ele>94.48</ele>
        <time>2015-03-10T16:05:28Z</time>
      </trkpt>
      <trkpt lat="47.69568" lon="-2.42753">
        <ele>94.23</ele>
        <time>2015-03-10T16:05:43Z</time>
      </trkpt>
      <trkpt lat="47.69569" lon="-2.4278">
        <ele>95.09</ele>
        <time>2015-03-10T16:05:57Z</time>
      </trkpt>
      <trkpt lat="47.6957" lon="-2.42807">
        <ele>95.29</ele>
        <time>2015-03-10T16:06:12Z</time>
      </trkpt>
      <trkpt lat="47.69571" lon="-2.42834">
        <ele>96.46</ele>
        <time>2015-03-10T16:06:30Z</time>
      </trkpt>
      <trkpt lat="47.69571" lon="-2.42861">
        <ele>95.88</ele>
        <time>2015-03-10T16:06:53Z</time>
      </trkpt>
      <trkpt lat="47.6957" lon="-2.42889">
        <ele>94.53</ele>
        <time>2015-03-10T16:07:12Z</time>
      </trkpt>
      <trkpt lat="47.69571" lon="-2.42917">
        <ele>92.17</ele>
        <time>2015-03-10T16:07:33Z</time>
      </trkpt>
      <trkpt lat="47.69572" lon="-2.42943">
        <ele>91.16</ele>
        <time>2015-03-10T16:07:51Z</time>
      </trkpt>
      <trkpt lat="47.69575" lon="-2.4297">
        <ele>89.96</ele>
        <time>2015-03-10T16:08:06Z</time>
      </trkpt>
      <trkpt lat="47.69576" lon="-2.42998">
        <ele>89.87</ele>
        <time>2015-03-10T16:08:19Z</time>
      </trkpt>
      <trkpt lat="47.69576" lon="-2.43025">
        <ele>89.71</ele>
        <time>2015-03-10T16:08:34Z</time>
      </trkpt>
      <trkpt lat="47.69579" lon="-2.43054">
        <ele>90.04</ele>
        <time>2015-03-10T16:08:46Z</time>
      </trkpt>
      <trkpt lat="47.6958" lon="-2.43082">
        <ele>90.84</ele>
        <time>2015-03-10T16:09:01Z</time>
      </trkpt>
      <trkpt lat="47.6958" lon="-2.4311">
        <ele>90.91</ele>
        <time>2015-03-10T16:09:17Z</time>
      </trkpt>
      <trkpt lat="47.69579" lon="-2.43137">
        <ele>91.25</ele>
        <time>2015-03-10T16:09:32Z</time>
      </trkpt>
      <trkpt lat="47.69581" lon="-2.43164">
        <ele>90.45</ele>
        <time>2015-03-10T16:09:47Z</time>
      </trkpt>
      <trkpt lat="47.69583" lon="-2.43192">
        <ele>90.18</ele>
        <time>2015-03-10T16:10:03Z</time>
      </trkpt>
      <trkpt lat="47.69584" lon="-2.43219">
        <ele>89.77</ele>
        <time>2015-03-10T16:10:19Z</time>
      </trkpt>
      <trkpt lat="47.69584" lon="-2.43246">
        <ele>89.39</ele>
        <time>2015-03-10T16:10:34Z</time>
      </trkpt>
      <trkpt lat="47.69587" lon="-2.43274">
        <ele>89.19</ele>
        <time>2015-03-10T16:10:50Z</time>
      </trkpt>
      <trkpt lat="47.69586" lon="-2.43302">
        <ele>89.46</ele>
        <time>2015-03-10T16:11:04Z</time>
      </trkpt>
      <trkpt lat="47.69582" lon="-2.4333">
        <ele>89.25</ele>
        <time>2015-03-10T16:11:20Z</time>
      </trkpt>
      <trkpt lat="47.69577" lon="-2.43356">
        <ele>89.36</ele>
        <time>2015-03-10T16:11:37Z</time>
      </trkpt>
      <trkpt lat="47.69572" lon="-2.43382">
        <ele>88.07</ele>
        <time>2015-03-10T16:11:52Z</time>
      </trkpt>
      <trkpt lat="47.69563" lon="-2.43405">
        <ele>86.96</ele>
        <time>2015-03-10T16:12:04Z</time>
      </trkpt>
      <trkpt lat="47.6955" lon="-2.43425">
        <ele>86.91</ele>
        <time>2015-03-10T16:12:20Z</time>
      </trkpt>
      <trkpt lat="47.69533" lon="-2.43437">
        <ele>87.08</ele>
        <time>2015-03-10T16:12:35Z</time>
      </trkpt>
      <trkpt lat="47.69521" lon="-2.43459">
        <ele>86.92</ele>
        <time>2015-03-10T16:12:53Z</time>
      </trkpt>
      <trkpt lat="47.69515" lon="-2.43485">
        <ele>88.38</ele>
        <time>2015-03-10T16:13:09Z</time>
      </trkpt>
      <trkpt lat="47.69498" lon="-2.43492">
        <ele>89.44</ele>
        <time>2015-03-10T16:13:28Z</time>
      </trkpt>
      <trkpt lat="47.69479" lon="-2.43498">
        <ele>90.38</ele>
        <time>2015-03-10T16:13:41Z</time>
      </trkpt>
      <trkpt lat="47.69461" lon="-2.43504">
        <ele>91.48</ele>
        <time>2015-03-10T16:13:59Z</time>
      </trkpt>
      <trkpt lat="47.69443" lon="-2.43509">
        <ele>92.68</ele>
        <time>2015-03-10T16:14:14Z</time>
      </trkpt>
      <trkpt lat="47.69425" lon="-2.43512">
        <ele>93.78</ele>
        <time>2015-03-10T16:14:33Z</time>
      </trkpt>
      <trkpt lat="47.69407" lon="-2.4352">
        <ele>95.32</ele>
        <time>2015-03-10T16:14:43Z</time>
      </trkpt>
      <trkpt lat="47.69388" lon="-2.43523">
        <ele>96.3</ele>
        <time>2015-03-10T16:14:58Z</time>
      </trkpt>
      <trkpt lat="47.69371" lon="-2.43532">
        <ele>96.66</ele>
        <time>2015-03-10T16:15:15Z</time>
      </trkpt>
      <trkpt lat="47.69353" lon="-2.43541">
        <ele>97.9</ele>
        <time>2015-03-10T16:15:30Z</time>
      </trkpt>
      <trkpt lat="47.69335" lon="-2.43546">
        <ele>97.35</ele>
        <time>2015-03-10T16:15:45Z</time>
      </trkpt>
      <trkpt lat="47.69318" lon="-2.43554">
        <ele>94.8</ele>
        <time>2015-03-10T16:16:03Z</time>
      </trkpt>
      <trkpt lat="47.69301" lon="-2.43562">
        <ele>93.87</ele>
        <time>2015-03-10T16:16:18Z</time>
      </trkpt>
      <trkpt lat="47.69284" lon="-2.43573">
        <ele>93.33</ele>
        <time>2015-03-10T16:16:30Z</time>
      </trkpt>
      <trkpt lat="47.69268" lon="-2.43587">
        <ele>93.2</ele>
        <time>2015-03-10T16:16:48Z</time>
      </trkpt>
      <trkpt lat="47.69251" lon="-2.436">
        <ele>91.83</ele>
        <time>2015-03-10T16:17:07Z</time>
      </trkpt>
      <trkpt lat="47.69237" lon="-2.43616">
        <ele>90.69</ele>
        <time>2015-03-10T16:17:24Z</time>
      </trkpt>
      <trkpt lat="47.6922" lon="-2.43631">
        <ele>89.97</ele>
        <time>2015-03-10T16:17:41Z</time>
      </trkpt>
      <trkpt lat="47.69204" lon="-2.43642">
        <ele>89.66</ele>
        <time>2015-03-10T16:17:54Z</time>
      </trkpt>
      <trkpt lat="47.69187" lon="-2.43656">
        <ele>90.65</ele>
        <time>2015-03-10T16:18:09Z</time>
      </trkpt>
      <trkpt lat="47.69171" lon="-2.4367">
        <ele>90.66</ele>
        <time>2015-03-10T16:18:24Z</time>
      </trkpt>
      <trkpt lat="47.69155" lon="-2.43684">
        <ele>90.13</ele>
        <time>2015-03-10T16:18:38Z</time>
      </trkpt>
      <trkpt lat="47.6914" lon="-2.43699">
        <ele>90.01</ele>
        <time>2015-03-10T16:18:55Z</time>
      </trkpt>
      <trkpt lat="47.69123" lon="-2.43712">
        <ele>90.24</ele>
        <time>2015-03-10T16:19:09Z</time>
      </trkpt>
      <trkpt lat="47.69107" lon="-2.43725">
        <ele>90.21</ele>
        <time>2015-03-10T16:19:22Z</time>
      </trkpt>
      <trkpt lat="47.69091" lon="-2.43738">
        <ele>89.15</ele>
        <time>2015-03-10T16:19:36Z</time>
      </trkpt>
      <trkpt lat="47.69075" lon="-2.43752">
        <ele>89.02</ele>
        <time>2015-03-10T16:19:52Z</time>
      </trkpt>
      <trkpt lat="47.69059" lon="-2.43766">
        <ele>90.04</ele>
        <time>2015-03-10T16:20:10Z</time>
      </trkpt>
      <trkpt lat="47.69042" lon="-2.4378">
        <ele>90.41</ele>
        <time>2015-03-10T16:20:25Z</time>
      </trkpt>
      <trkpt lat="47.69025" lon="-2.43792">
        <ele>90.32</ele>
        <time>2015-03-10T16:20:43Z</time>
      </trkpt>
      <trkpt lat="47.69009" lon="-2.43805">
        <ele>90.37</ele>
        <time>2015-03-10T16:20:57Z</time>
      </trkpt>
      <trkpt lat="47.68993" lon="-2.4382">
        <ele>90.91</ele>
        <time>2015-03-10T16:21:12Z</time>
      </trkpt>
      <trkpt lat="47.68979" lon="-2.43835">
        <ele>90.52</ele>
        <time>2015-03-10T16:21:32Z</time>
      </trkpt>
      <trkpt lat="47.68963" lon="-2.43848">
        <ele>91.12</ele>
        <time>2015-03-10T16:21:43Z</time>
      </trkpt>
      <trkpt lat="47.68947" lon="-2.43863">
        <ele>91.72</ele>
        <time>2015-03-10T16:21:57Z</time>
      </trkpt>
      <trkpt lat="47.68931" lon="-2.43878">
        <ele>93.64</ele>
        <time>2015-03-10T16:22:16Z</time>
      </trkpt>
      <trkpt lat="47.68914" lon="-2.4389">
        <ele>94.72</ele>
        <time>2015-03-10T16:22:33Z</time>
      </trkpt>
      <trkpt lat="47.68898" lon="-2.43904">
        <ele>95.79</ele>
        <time>2015-03-10T16:22:51Z</time>
      </trkpt>
      <trkpt lat="47.68882" lon="-2.43917">
        <ele>96.75</ele>
        <time>2015-03-10T16:23:04Z</time>
      </trkpt>
      <trkpt lat="47.68867" lon="-2.43933">
        <ele>96.75</ele>
        <time>2015-03-10T16:23:19Z</time>
      </trkpt>
      <trkpt lat="47.6885" lon="-2.43944">
        <ele>95.97</ele>
        <time>2015-03-10T16:24:02Z</time>
      </trkpt>
      <trkpt lat="47.68833" lon="-2.43955">
        <ele>93.74</ele>
        <time>2015-03-10T16:24:29Z</time>
      </trkpt>
      <trkpt lat="47.68818" lon="-2.43971">
        <ele>94.13</ele>
        <time>2015-03-10T16:24:44Z</time>
      </trkpt>
      <trkpt lat="47.68799" lon="-2.43973">
        <ele>92.99</ele>
        <time>2015-03-10T16:25:41Z</time>
      </trkpt>
      <trkpt lat="47.68789" lon="-2.43996">
        <ele>94.09</ele>
        <time>2015-03-10T16:25:55Z</time>
      </trkpt>
      <trkpt lat="47.68773" lon="-2.44011">
        <ele>95.88</ele>
        <time>2015-03-10T16:26:07Z</time>
      </trkpt>
      <trkpt lat="47.68757" lon="-2.44025">
        <ele>97.25</ele>
        <time>2015-03-10T16:26:30Z</time>
      </trkpt>
      <trkpt lat="47.68741" lon="-2.44037">
        <ele>97.1</ele>
        <time>2015-03-10T16:27:26Z</time>
      </trkpt>
      <trkpt lat="47.68724" lon="-2.44049">
        <ele>96.16</ele>
        <time>2015-03-10T16:27:39Z</time>
      </trkpt>
      <trkpt lat="47.68716" lon="-2.44072">
        <ele>95.58</ele>
        <time>2015-03-10T16:27:57Z</time>
      </trkpt>
      <trkpt lat="47.68726" lon="-2.44097">
        <ele>95.2</ele>
        <time>2015-03-10T16:28:13Z</time>
      </trkpt>
      <trkpt lat="47.68743" lon="-2.44107">
        <ele>95.28</ele>
        <time>2015-03-10T16:28:31Z</time>
      </trkpt>
      <trkpt lat="47.68759" lon="-2.4412">
        <ele>95.23</ele>
        <time>2015-03-10T16:28:46Z</time>
      </trkpt>
      <trkpt lat="47.68773" lon="-2.44138">
        <ele>95.25</ele>
        <time>2015-03-10T16:29:03Z</time>
      </trkpt>
    </trkseg>
  </trk>
</gpx>